Observation data for Lake Alan Henry on 07/19/2019      Previous  Date  Next       Current Mesonet Observations  Soil Data  Daily Summary Page  Observations in Plain Language
KAHS 190500Z 18014KT 31/17 A2989 RMK A01 T03080171  RH  044%=      5-min Rain = 0
KAHS 190501Z 19015KT 31/17 A2989 RMK A01 T03090171  RH  044%=      5-min Rain = 0
KAHS 190502Z 18013KT 31/17 A2989 RMK A01 T03090171  RH  044%=      5-min Rain = 0
KAHS 190503Z 18012KT 31/17 A2989 RMK A01 T03090171  RH  044%=      5-min Rain = 0
KAHS 190504Z 18012G20KT 31/17 A2989 RMK A01 T03090171  RH  044%=      5-min Rain = 0
KAHS 190505Z 18013KT 31/17 A2989 RMK A01 T03090170  RH  043%=      5-min Rain = 0
KAHS 190506Z 19014KT 31/17 A2989 RMK A01 T03090170  RH  043%=      5-min Rain = 0
KAHS 190507Z 18013G18KT 31/17 A2989 RMK A01 T03080171  RH  044%=      5-min Rain = 0
KAHS 190508Z 18012KT 31/17 A2989 RMK A01 T03080171  RH  044%=      5-min Rain = 0
KAHS 190509Z 19011G16KT 31/17 A2989 RMK A01 T03080171  RH  044%=      5-min Rain = 0
KAHS 190510Z 18011KT 31/17 A2989 RMK A01 T03070171  RH  044%=      5-min Rain = 0
KAHS 190511Z 19011G16KT 31/17 A2989 RMK A01 T03070172  RH  044%=      5-min Rain = 0
KAHS 190512Z 18013G18KT 31/17 A2989 RMK A01 T03070171  RH  044%=      5-min Rain = 0
KAHS 190513Z 18013KT 31/17 A2989 RMK A01 T03070170  RH  044%=      5-min Rain = 0
KAHS 190514Z 18013KT 31/17 A2989 RMK A01 T03070170  RH  044%=      5-min Rain = 0
KAHS 190515Z 18010KT 31/17 A2989 RMK A01 T03070170  RH  044%=      5-min Rain = 0
KAHS 190516Z 19010G15KT 31/17 A2989 RMK A01 T03060171  RH  044%=      5-min Rain = 0
KAHS 190517Z 18015G20KT 31/17 A2989 RMK A01 T03060170  RH  044%=      5-min Rain = 0
KAHS 190518Z 19015G20KT 31/17 A2989 RMK A01 T03060170  RH  044%=      5-min Rain = 0
KAHS 190519Z 19012G17KT 31/17 A2989 RMK A01 T03070170  RH  044%=      5-min Rain = 0
KAHS 190520Z 19013KT 31/17 A2989 RMK A01 T03070170  RH  044%=      5-min Rain = 0
KAHS 190521Z 18013G19KT 31/17 A2989 RMK A01 T03070170  RH  044%=      5-min Rain = 0
KAHS 190522Z 18017G22KT 31/17 A2989 RMK A01 T03070169  RH  044%=      5-min Rain = 0
KAHS 190523Z 18016KT 31/17 A2989 RMK A01 T03070169  RH  043%=      5-min Rain = 0
KAHS 190524Z 19015KT 31/17 A2989 RMK A01 T03070169  RH  044%=      5-min Rain = 0
KAHS 190525Z 19014KT 31/17 A2989 RMK A01 T03070169  RH  043%=      5-min Rain = 0
KAHS 190526Z 18016KT 31/17 A2989 RMK A01 T03070169  RH  043%=      5-min Rain = 0
KAHS 190527Z 19014KT 31/17 A2989 RMK A01 T03070168  RH  043%=      5-min Rain = 0
KAHS 190528Z 18016KT 31/17 A2989 RMK A01 T03070168  RH  043%=      5-min Rain = 0
KAHS 190529Z 19011G16KT 31/17 A2989 RMK A01 T03070168  RH  043%=      5-min Rain = 0
KAHS 190530Z 19011KT 31/17 A2989 RMK A01 T03060168  RH  043%=      5-min Rain = 0
KAHS 190531Z 19012G17KT 31/17 A2989 RMK A01 T03060169  RH  044%=      5-min Rain = 0
KAHS 190532Z 18013KT 31/17 A2989 RMK A01 T03060169  RH  044%=      5-min Rain = 0
KAHS 190533Z 19016KT 31/17 A2989 RMK A01 T03060167  RH  043%=      5-min Rain = 0
KAHS 190534Z 18013G18KT 31/17 A2989 RMK A01 T03060167  RH  043%=      5-min Rain = 0
KAHS 190535Z 19012KT 31/17 A2989 RMK A01 T03070167  RH  043%=      5-min Rain = 0
KAHS 190536Z 18016G22KT 31/17 A2989 RMK A01 T03060167  RH  043%=      5-min Rain = 0
KAHS 190537Z 19016KT 31/17 A2989 RMK A01 T03070166  RH  043%=      5-min Rain = 0
KAHS 190538Z 18014KT 31/17 A2989 RMK A01 T03070166  RH  043%=      5-min Rain = 0
KAHS 190539Z 19012KT 31/17 A2989 RMK A01 T03070166  RH  043%=      5-min Rain = 0
KAHS 190540Z 19012KT 31/17 A2989 RMK A01 T03070166  RH  043%=      5-min Rain = 0
KAHS 190541Z 19012G17KT 31/17 A2989 RMK A01 T03060167  RH  043%=      5-min Rain = 0
KAHS 190542Z 19014KT 31/17 A2989 RMK A01 T03060166  RH  043%=      5-min Rain = 0
KAHS 190543Z 19014KT 31/17 A2989 RMK A01 T03060165  RH  043%=      5-min Rain = 0
KAHS 190544Z 19014G22KT 31/17 A2989 RMK A01 T03060165  RH  043%=      5-min Rain = 0
KAHS 190545Z 19015G21KT 31/17 A2989 RMK A01 T03060165  RH  043%=      5-min Rain = 0
KAHS 190546Z 19016G21KT 31/17 A2989 RMK A01 T03060165  RH  043%=      5-min Rain = 0
KAHS 190547Z 20016G22KT 31/17 A2989 RMK A01 T03060165  RH  043%=      5-min Rain = 0
KAHS 190548Z 20016G21KT 31/16 A2989 RMK A01 T03070163  RH  042%=      5-min Rain = 0
KAHS 190549Z 19014KT 31/16 A2989 RMK A01 T03070163  RH  042%=      5-min Rain = 0
KAHS 190550Z 19012KT 31/16 A299 RMK A01 T03060162  RH  042%=      5-min Rain = 0
KAHS 190551Z 19011KT 31/16 A299 RMK A01 T03050163  RH  042%=      5-min Rain = 0
KAHS 190552Z 20014G19KT 31/16 A2989 RMK A01 T03050163  RH  043%=      5-min Rain = 0
KAHS 190553Z 20014G19KT 31/16 A2989 RMK A01 T03050163  RH  042%=      5-min Rain = 0
KAHS 190554Z 19015KT 30/16 A2989 RMK A01 T03040162  RH  042%=      5-min Rain = 0
KAHS 190555Z 19015G21KT 30/16 A2989 RMK A01 T03040161  RH  042%=      5-min Rain = 0
KAHS 190556Z 20013G19KT 31/16 A2989 RMK A01 T03050161  RH  042%=      5-min Rain = 0
KAHS 190557Z 19017KT 31/16 A2989 RMK A01 T03050161  RH  042%=      5-min Rain = 0
KAHS 190558Z 19014KT 31/16 A2989 RMK A01 T03050160  RH  042%=      5-min Rain = 0
KAHS 190559Z 19013G18KT 31/16 A2989 RMK A01 T03050160  RH  042%=      5-min Rain = 0
KAHS 190600Z 20013KT 30/16 A2989 RMK A01 T03040160  RH  042%=      5-min Rain = 0
KAHS 190601Z 19012KT 30/16 A299 RMK A01 T03030160  RH  042%=      5-min Rain = 0
KAHS 190602Z 20014G22KT 30/16 A2989 RMK A01 T03030160  RH  042%=      5-min Rain = 0
KAHS 190603Z 19014G20KT 30/16 A299 RMK A01 T03030159  RH  042%=      5-min Rain = 0
KAHS 190604Z 19012KT 30/16 A299 RMK A01 T03030159  RH  042%=      5-min Rain = 0
KAHS 190605Z 20017KT 30/16 A299 RMK A01 T03030159  RH  042%=      5-min Rain = 0
KAHS 190606Z 20018KT 30/16 A2989 RMK A01 T03030159  RH  042%=      5-min Rain = 0
KAHS 190607Z 19014KT 30/16 A299 RMK A01 T03030160  RH  042%=      5-min Rain = 0
KAHS 190608Z 20016G23KT 30/16 A299 RMK A01 T03030159  RH  042%=      5-min Rain = 0
KAHS 190609Z 20011KT 30/16 A299 RMK A01 T03030159  RH  042%=      5-min Rain = 0
KAHS 190610Z 19012G18KT 30/16 A299 RMK A01 T03020159  RH  042%=      5-min Rain = 0
KAHS 190611Z 20014KT 30/16 A299 RMK A01 T03020159  RH  042%=      5-min Rain = 0
KAHS 190612Z 19017KT 30/16 A299 RMK A01 T03020158  RH  042%=      5-min Rain = 0
KAHS 190613Z 19015G20KT 30/16 A299 RMK A01 T03020158  RH  042%=      5-min Rain = 0
KAHS 190614Z 19014G19KT 30/16 A299 RMK A01 T03020158  RH  042%=      5-min Rain = 0
KAHS 190615Z 19013KT 30/16 A299 RMK A01 T03020158  RH  042%=      5-min Rain = 0
KAHS 190616Z 19012KT 30/16 A299 RMK A01 T03020158  RH  042%=      5-min Rain = 0
KAHS 190617Z 20015G20KT 30/16 A299 RMK A01 T03010158  RH  042%=      5-min Rain = 0
KAHS 190618Z 20015KT 30/16 A299 RMK A01 T03010157  RH  042%=      5-min Rain = 0
KAHS 190619Z 19012G19KT 30/16 A299 RMK A01 T03010157  RH  042%=      5-min Rain = 0
KAHS 190620Z 19012KT 30/16 A299 RMK A01 T03000157  RH  042%=      5-min Rain = 0
KAHS 190621Z 20013KT 30/16 A299 RMK A01 T03000157  RH  042%=      5-min Rain = 0
KAHS 190622Z 20015G20KT 30/16 A299 RMK A01 T03000156  RH  042%=      5-min Rain = 0
KAHS 190623Z 19016KT 30/16 A299 RMK A01 T03000156  RH  042%=      5-min Rain = 0
KAHS 190624Z 20015G20KT 30/16 A299 RMK A01 T03000156  RH  042%=      5-min Rain = 0
KAHS 190625Z 20015KT 30/16 A299 RMK A01 T03000156  RH  042%=      5-min Rain = 0
KAHS 190626Z 20014KT 30/16 A299 RMK A01 T03000155  RH  042%=      5-min Rain = 0
KAHS 190627Z 19015G21KT 30/16 A299 RMK A01 T03000155  RH  042%=      5-min Rain = 0
KAHS 190628Z 20012KT 30/16 A299 RMK A01 T03000156  RH  042%=      5-min Rain = 0
KAHS 190629Z 19011KT 30/16 A299 RMK A01 T02990156  RH  042%=      5-min Rain = 0
KAHS 190630Z 19011KT 30/16 A299 RMK A01 T02980156  RH  042%=      5-min Rain = 0
KAHS 190631Z 20013KT 30/16 A299 RMK A01 T02980156  RH  042%=      5-min Rain = 0
KAHS 190632Z 20012KT 30/16 A299 RMK A01 T02980155  RH  042%=      5-min Rain = 0
KAHS 190633Z 20014G21KT 30/16 A299 RMK A01 T02980155  RH  042%=      5-min Rain = 0
KAHS 190634Z 19015KT 30/16 A299 RMK A01 T02980155  RH  042%=      5-min Rain = 0
KAHS 190635Z 20015KT 30/16 A299 RMK A01 T02980155  RH  042%=      5-min Rain = 0
KAHS 190636Z 19015KT 30/16 A299 RMK A01 T02980155  RH  042%=      5-min Rain = 0
KAHS 190637Z 19013G19KT 30/16 A299 RMK A01 T02980155  RH  042%=      5-min Rain = 0
KAHS 190638Z 19013G19KT 30/16 A299 RMK A01 T02980155  RH  042%=      5-min Rain = 0
KAHS 190639Z 20013KT 30/16 A299 RMK A01 T02980155  RH  042%=      5-min Rain = 0
KAHS 190640Z 20013G19KT 30/16 A299 RMK A01 T02980155  RH  042%=      5-min Rain = 0
KAHS 190641Z 20013KT 30/16 A299 RMK A01 T02980155  RH  042%=      5-min Rain = 0
KAHS 190642Z 19013G19KT 30/16 A299 RMK A01 T02970155  RH  042%=      5-min Rain = 0
KAHS 190643Z 20016KT 30/16 A299 RMK A01 T02970155  RH  042%=      5-min Rain = 0
KAHS 190644Z 20016G21KT 30/16 A299 RMK A01 T02970155  RH  042%=      5-min Rain = 0
KAHS 190645Z 19014KT 30/16 A299 RMK A01 T02970155  RH  042%=      5-min Rain = 0
KAHS 190646Z 20014G20KT 30/16 A299 RMK A01 T02970155  RH  042%=      5-min Rain = 0
KAHS 190647Z 20015KT 30/15 A299 RMK A01 T02960154  RH  042%=      5-min Rain = 0
KAHS 190648Z 20014KT 30/15 A299 RMK A01 T02970154  RH  042%=      5-min Rain = 0
KAHS 190649Z 19012KT 30/15 A299 RMK A01 T02960154  RH  042%=      5-min Rain = 0
KAHS 190650Z 20012KT 30/16 A299 RMK A01 T02960155  RH  042%=      5-min Rain = 0
KAHS 190651Z 19009KT 30/15 A299 RMK A01 T02950154  RH  043%=      5-min Rain = 0
KAHS 190652Z 19011KT 29/16 A299 RMK A01 T02940155  RH  043%=      5-min Rain = 0
KAHS 190653Z 20014G19KT 29/16 A299 RMK A01 T02940155  RH  043%=      5-min Rain = 0
KAHS 190654Z 19012KT 29/16 A299 RMK A01 T02940155  RH  043%=      5-min Rain = 0
KAHS 190655Z 20015KT 29/16 A299 RMK A01 T02940155  RH  043%=      5-min Rain = 0
KAHS 190656Z 19011KT 29/16 A299 RMK A01 T02940155  RH  043%=      5-min Rain = 0
KAHS 190657Z 19012KT 29/16 A299 RMK A01 T02940155  RH  043%=      5-min Rain = 0
KAHS 190658Z 19016KT 29/15 A299 RMK A01 T02940154  RH  043%=      5-min Rain = 0
KAHS 190659Z 20013G20KT 29/15 A299 RMK A01 T02940154  RH  043%=      5-min Rain = 0
KAHS 190700Z 20013G18KT 29/15 A299 RMK A01 T02940154  RH  043%=      5-min Rain = 0
KAHS 190701Z 19016KT 29/15 A299 RMK A01 T02940154  RH  043%=      5-min Rain = 0
KAHS 190702Z 19016KT 29/15 A299 RMK A01 T02940154  RH  043%=      5-min Rain = 0
KAHS 190703Z 20012KT 29/15 A299 RMK A01 T02940154  RH  043%=      5-min Rain = 0
KAHS 190704Z 20012KT 29/15 A299 RMK A01 T02930154  RH  043%=      5-min Rain = 0
KAHS 190705Z 19010G15KT 29/15 A299 RMK A01 T02930154  RH  043%=      5-min Rain = 0
KAHS 190706Z 20014KT 29/15 A299 RMK A01 T02920154  RH  043%=      5-min Rain = 0
KAHS 190707Z 20011G16KT 29/15 A299 RMK A01 T02920154  RH  043%=      5-min Rain = 0
KAHS 190708Z 19015KT 29/15 A299 RMK A01 T02920154  RH  043%=      5-min Rain = 0
KAHS 190709Z 19016G21KT 29/15 A299 RMK A01 T02920154  RH  043%=      5-min Rain = 0
KAHS 190710Z 19015KT 29/15 A299 RMK A01 T02920154  RH  043%=      5-min Rain = 0
KAHS 190711Z 20012KT 29/15 A299 RMK A01 T02930154  RH  043%=      5-min Rain = 0
KAHS 190712Z 20012KT 29/15 A299 RMK A01 T02920154  RH  043%=      5-min Rain = 0
KAHS 190713Z 20013KT 29/15 A299 RMK A01 T02920153  RH  043%=      5-min Rain = 0
KAHS 190714Z 19013KT 29/15 A299 RMK A01 T02920153  RH  043%=      5-min Rain = 0
KAHS 190715Z 20014KT 29/15 A299 RMK A01 T02920153  RH  043%=      5-min Rain = 0
KAHS 190716Z 19011KT 29/15 A299 RMK A01 T02920154  RH  043%=      5-min Rain = 0
KAHS 190717Z 20013KT 29/15 A299 RMK A01 T02910154  RH  043%=      5-min Rain = 0
KAHS 190718Z 20011KT 29/15 A299 RMK A01 T02910153  RH  043%=      5-min Rain = 0
KAHS 190719Z 20010G15KT 29/15 A299 RMK A01 T02900153  RH  043%=      5-min Rain = 0
KAHS 190720Z 19010KT 29/15 A299 RMK A01 T02900153  RH  043%=      5-min Rain = 0
KAHS 190721Z 19012KT 29/15 A299 RMK A01 T02890153  RH  044%=      5-min Rain = 0
KAHS 190722Z 20015KT 29/15 A299 RMK A01 T02890153  RH  044%=      5-min Rain = 0
KAHS 190723Z 20014KT 29/15 A299 RMK A01 T02900153  RH  043%=      5-min Rain = 0
KAHS 190724Z 19013KT 29/15 A299 RMK A01 T02900153  RH  044%=      5-min Rain = 0
KAHS 190725Z 19013KT 29/15 A299 RMK A01 T02900154  RH  044%=      5-min Rain = 0
KAHS 190726Z 20013KT 29/15 A299 RMK A01 T02900154  RH  044%=      5-min Rain = 0
KAHS 190727Z 19010KT 29/15 A299 RMK A01 T02890154  RH  044%=      5-min Rain = 0
KAHS 190728Z 19010G15KT 29/15 A299 RMK A01 T02890154  RH  044%=      5-min Rain = 0
KAHS 190729Z 19012G17KT 29/15 A299 RMK A01 T02880154  RH  044%=      5-min Rain = 0
KAHS 190730Z 19011KT 29/15 A299 RMK A01 T02880154  RH  044%=      5-min Rain = 0
KAHS 190731Z 20011KT 29/15 A299 RMK A01 T02880154  RH  044%=      5-min Rain = 0
KAHS 190732Z 20010KT 29/15 A299 RMK A01 T02880154  RH  044%=      5-min Rain = 0
KAHS 190733Z 19011KT 29/15 A299 RMK A01 T02880154  RH  044%=      5-min Rain = 0
KAHS 190734Z 20012G17KT 29/15 A299 RMK A01 T02880153  RH  044%=      5-min Rain = 0
KAHS 190735Z 19014KT 29/15 A299 RMK A01 T02880154  RH  044%=      5-min Rain = 0
KAHS 190736Z 20012KT 29/15 A299 RMK A01 T02880154  RH  044%=      5-min Rain = 0
KAHS 190737Z 19010KT 29/15 A299 RMK A01 T02880154  RH  044%=      5-min Rain = 0
KAHS 190738Z 19011KT 29/15 A299 RMK A01 T02880154  RH  044%=      5-min Rain = 0
KAHS 190739Z 20009KT 29/15 A299 RMK A01 T02880153  RH  044%=      5-min Rain = 0
KAHS 190740Z 20011KT 29/15 A299 RMK A01 T02870153  RH  044%=      5-min Rain = 0
KAHS 190741Z 20012KT 29/15 A299 RMK A01 T02870152  RH  044%=      5-min Rain = 0
KAHS 190742Z 19014KT 29/15 A299 RMK A01 T02870152  RH  044%=      5-min Rain = 0
KAHS 190743Z 19012KT 29/15 A299 RMK A01 T02880153  RH  044%=      5-min Rain = 0
KAHS 190744Z 18011KT 29/15 A299 RMK A01 T02880154  RH  044%=      5-min Rain = 0
KAHS 190745Z 19011KT 29/15 A299 RMK A01 T02870154  RH  044%=      5-min Rain = 0
KAHS 190746Z 19014KT 29/15 A299 RMK A01 T02870153  RH  044%=      5-min Rain = 0
KAHS 190747Z 19010KT 29/15 A299 RMK A01 T02870153  RH  044%=      5-min Rain = 0
KAHS 190748Z 19010KT 29/15 A299 RMK A01 T02860154  RH  045%=      5-min Rain = 0
KAHS 190749Z 18010KT 29/16 A299 RMK A01 T02850155  RH  045%=      5-min Rain = 0
KAHS 190750Z 19010KT 29/16 A299 RMK A01 T02850156  RH  045%=      5-min Rain = 0
KAHS 190751Z 19010KT 29/16 A299 RMK A01 T02850156  RH  045%=      5-min Rain = 0
KAHS 190752Z 19010KT 29/15 A299 RMK A01 T02850154  RH  045%=      5-min Rain = 0
KAHS 190753Z 19007KT 28/16 A2991 RMK A01 T02840155  RH  045%=      5-min Rain = 0
KAHS 190754Z 19009KT 28/16 A2991 RMK A01 T02830156  RH  046%=      5-min Rain = 0
KAHS 190755Z 19011KT 28/16 A299 RMK A01 T02830156  RH  046%=      5-min Rain = 0
KAHS 190756Z 18009KT 28/16 A299 RMK A01 T02830157  RH  046%=      5-min Rain = 0
KAHS 190757Z 19008KT 28/16 A299 RMK A01 T02830157  RH  046%=      5-min Rain = 0
KAHS 190758Z 18009KT 28/16 A2991 RMK A01 T02830156  RH  046%=      5-min Rain = 0
KAHS 190759Z 19009KT 28/16 A2991 RMK A01 T02820157  RH  046%=      5-min Rain = 0
KAHS 190800Z 19011KT 28/16 A299 RMK A01 T02830157  RH  046%=      5-min Rain = 0
KAHS 190801Z 19010KT 28/16 A2991 RMK A01 T02840156  RH  046%=      5-min Rain = 0
KAHS 190802Z 18012KT 28/16 A2991 RMK A01 T02840155  RH  046%=      5-min Rain = 0
KAHS 190803Z 18012KT 29/15 A299 RMK A01 T02850154  RH  045%=      5-min Rain = 0
KAHS 190804Z 19011KT 29/15 A2991 RMK A01 T02850154  RH  045%=      5-min Rain = 0
KAHS 190805Z 19011KT 28/16 A2991 RMK A01 T02840155  RH  045%=      5-min Rain = 0
KAHS 190806Z 19012G17KT 28/16 A2991 RMK A01 T02830155  RH  046%=      5-min Rain = 0
KAHS 190807Z 18010KT 28/16 A2991 RMK A01 T02840155  RH  045%=      5-min Rain = 0
KAHS 190808Z 19013KT 29/15 A2991 RMK A01 T02850154  RH  045%=      5-min Rain = 0
KAHS 190809Z 19009G14KT 29/16 A2991 RMK A01 T02850155  RH  045%=      5-min Rain = 0
KAHS 190810Z 19010KT 28/16 A2991 RMK A01 T02840155  RH  045%=      5-min Rain = 0
KAHS 190811Z 19010KT 28/16 A2991 RMK A01 T02830155  RH  046%=      5-min Rain = 0
KAHS 190812Z 18010KT 28/16 A2991 RMK A01 T02830155  RH  046%=      5-min Rain = 0
KAHS 190813Z 17010KT 28/16 A2991 RMK A01 T02830155  RH  046%=      5-min Rain = 0
KAHS 190814Z 18013KT 28/15 A2991 RMK A01 T02840154  RH  045%=      5-min Rain = 0
KAHS 190815Z 18012KT 28/15 A2991 RMK A01 T02830153  RH  045%=      5-min Rain = 0
KAHS 190816Z 19011KT 28/15 A2991 RMK A01 T02830153  RH  045%=      5-min Rain = 0
KAHS 190817Z 19015KT 28/15 A2991 RMK A01 T02830153  RH  045%=      5-min Rain = 0
KAHS 190818Z 18012G17KT 28/15 A2991 RMK A01 T02830154  RH  045%=      5-min Rain = 0
KAHS 190819Z 18016KT 28/15 A2991 RMK A01 T02830153  RH  045%=      5-min Rain = 0
KAHS 190820Z 18012KT 28/15 A2991 RMK A01 T02830153  RH  045%=      5-min Rain = 0
KAHS 190821Z 18014KT 28/15 A2991 RMK A01 T02830153  RH  045%=      5-min Rain = 0
KAHS 190822Z 18010KT 28/15 A2991 RMK A01 T02820153  RH  045%=      5-min Rain = 0
KAHS 190823Z 18011KT 28/15 A2991 RMK A01 T02810154  RH  046%=      5-min Rain = 0
KAHS 190824Z 18011KT 28/16 A2991 RMK A01 T02810155  RH  046%=      5-min Rain = 0
KAHS 190825Z 18011KT 28/16 A2991 RMK A01 T02800155  RH  047%=      5-min Rain = 0
KAHS 190826Z 18012KT 28/16 A2991 RMK A01 T02800155  RH  047%=      5-min Rain = 0
KAHS 190827Z 19013G19KT 28/16 A2991 RMK A01 T02800155  RH  047%=      5-min Rain = 0
KAHS 190828Z 19014KT 28/16 A2991 RMK A01 T02810156  RH  047%=      5-min Rain = 0
KAHS 190829Z 18012G17KT 28/16 A2991 RMK A01 T02810156  RH  047%=      5-min Rain = 0
KAHS 190830Z 18012KT 28/16 A2991 RMK A01 T02800156  RH  047%=      5-min Rain = 0
KAHS 190831Z 19011G16KT 28/16 A2991 RMK A01 T02790157  RH  047%=      5-min Rain = 0
KAHS 190832Z 19012KT 28/16 A2991 RMK A01 T02790158  RH  048%=      5-min Rain = 0
KAHS 190833Z 18016KT 28/16 A2991 RMK A01 T02790158  RH  048%=      5-min Rain = 0
KAHS 190834Z 18011KT 28/16 A2991 RMK A01 T02800159  RH  048%=      5-min Rain = 0
KAHS 190835Z 19013KT 28/16 A2991 RMK A01 T02800159  RH  048%=      5-min Rain = 0
KAHS 190836Z 18010KT 28/16 A2991 RMK A01 T02790159  RH  048%=      5-min Rain = 0
KAHS 190837Z 18011KT 28/16 A2991 RMK A01 T02790159  RH  048%=      5-min Rain = 0
KAHS 190838Z 18010G17KT 28/16 A2991 RMK A01 T02780159  RH  048%=      5-min Rain = 0
KAHS 190839Z 19011G16KT 28/16 A2991 RMK A01 T02780160  RH  049%=      5-min Rain = 0
KAHS 190840Z 18012KT 28/16 A2991 RMK A01 T02780160  RH  049%=      5-min Rain = 0
KAHS 190841Z 19012KT 28/16 A2991 RMK A01 T02780160  RH  049%=      5-min Rain = 0
KAHS 190842Z 18013KT 28/16 A2992 RMK A01 T02780160  RH  048%=      5-min Rain = 0
KAHS 190843Z 18012G17KT 28/16 A2992 RMK A01 T02780160  RH  049%=      5-min Rain = 0
KAHS 190844Z 19008KT 28/16 A2992 RMK A01 T02780161  RH  049%=      5-min Rain = 0
KAHS 190845Z 18013KT 28/16 A2992 RMK A01 T02770161  RH  049%=      5-min Rain = 0
KAHS 190846Z 18011KT 28/16 A2991 RMK A01 T02770161  RH  049%=      5-min Rain = 0
KAHS 190847Z 19010KT 28/16 A2992 RMK A01 T02770161  RH  049%=      5-min Rain = 0
KAHS 190848Z 18011G16KT 28/16 A2992 RMK A01 T02770162  RH  050%=      5-min Rain = 0
KAHS 190849Z 18010KT 28/16 A2992 RMK A01 T02770163  RH  050%=      5-min Rain = 0
KAHS 190850Z 18012KT 28/16 A2991 RMK A01 T02770164  RH  050%=      5-min Rain = 0
KAHS 190851Z 20010KT 28/16 A2991 RMK A01 T02770164  RH  050%=      5-min Rain = 0
KAHS 190852Z 19010KT 28/17 A2991 RMK A01 T02770165  RH  050%=      5-min Rain = 0
KAHS 190853Z 19010KT 28/17 A2992 RMK A01 T02760165  RH  051%=      5-min Rain = 0
KAHS 190854Z 18012G19KT 28/17 A2991 RMK A01 T02760165  RH  051%=      5-min Rain = 0
KAHS 190855Z 17013KT 28/16 A2991 RMK A01 T02770164  RH  050%=      5-min Rain = 0
KAHS 190856Z 18011KT 28/16 A2991 RMK A01 T02770164  RH  050%=      5-min Rain = 0
KAHS 190857Z 21010KT 28/17 A2991 RMK A01 T02770165  RH  050%=      5-min Rain = 0
KAHS 190858Z 20011G17KT 28/17 A2991 RMK A01 T02760165  RH  051%=      5-min Rain = 0
KAHS 190859Z 20010G15KT 28/17 A2991 RMK A01 T02760165  RH  051%=      5-min Rain = 0
KAHS 190900Z 19013KT 28/17 A2991 RMK A01 T02760166  RH  051%=      5-min Rain = 0
KAHS 190901Z 18010KT 28/17 A2991 RMK A01 T02760166  RH  051%=      5-min Rain = 0
KAHS 190902Z 19014KT 28/17 A2991 RMK A01 T02760167  RH  051%=      5-min Rain = 0
KAHS 190903Z 19013KT 28/17 A2991 RMK A01 T02760167  RH  051%=      5-min Rain = 0
KAHS 190904Z 20012G19KT 28/17 A2991 RMK A01 T02760167  RH  051%=      5-min Rain = 0
KAHS 190905Z 19012KT 28/17 A2991 RMK A01 T02760167  RH  051%=      5-min Rain = 0
KAHS 190906Z 20013KT 28/17 A2991 RMK A01 T02760167  RH  051%=      5-min Rain = 0
KAHS 190907Z 18013KT 28/17 A2991 RMK A01 T02750167  RH  052%=      5-min Rain = 0
KAHS 190908Z 18013KT 28/17 A2991 RMK A01 T02760169  RH  052%=      5-min Rain = 0
KAHS 190909Z 18012KT 28/17 A2991 RMK A01 T02750169  RH  052%=      5-min Rain = 0
KAHS 190910Z 19011KT 28/17 A2991 RMK A01 T02750168  RH  052%=      5-min Rain = 0
KAHS 190911Z 19013G18KT 28/17 A2991 RMK A01 T02750169  RH  052%=      5-min Rain = 0
KAHS 190912Z 19009KT 28/17 A2991 RMK A01 T02750169  RH  052%=      5-min Rain = 0
KAHS 190913Z 19009KT 27/17 A2991 RMK A01 T02740169  RH  053%=      5-min Rain = 0
KAHS 190914Z 19014KT 27/17 A2992 RMK A01 T02730170  RH  053%=      5-min Rain = 0
KAHS 190915Z 19011G18KT 27/17 A2992 RMK A01 T02730169  RH  053%=      5-min Rain = 0
KAHS 190916Z 19011KT 27/17 A2992 RMK A01 T02740169  RH  053%=      5-min Rain = 0
KAHS 190917Z 18009KT 27/17 A2992 RMK A01 T02730169  RH  053%=      5-min Rain = 0
KAHS 190918Z 19008KT 27/17 A2992 RMK A01 T02730170  RH  053%=      5-min Rain = 0
KAHS 190919Z 19011KT 27/17 A2992 RMK A01 T02720170  RH  053%=      5-min Rain = 0
KAHS 190920Z 19010KT 27/17 A2992 RMK A01 T02720170  RH  054%=      5-min Rain = 0
KAHS 190921Z 19011KT 27/17 A2992 RMK A01 T02720171  RH  054%=      5-min Rain = 0
KAHS 190922Z 18011KT 27/17 A2992 RMK A01 T02720171  RH  054%=      5-min Rain = 0
KAHS 190923Z 18011KT 27/17 A2992 RMK A01 T02720170  RH  054%=      5-min Rain = 0
KAHS 190924Z 19011KT 27/17 A2992 RMK A01 T02720170  RH  054%=      5-min Rain = 0
KAHS 190925Z 19010KT 27/17 A2992 RMK A01 T02710171  RH  054%=      5-min Rain = 0
KAHS 190926Z 19008KT 27/17 A2992 RMK A01 T02710171  RH  054%=      5-min Rain = 0
KAHS 190927Z 19008G16KT 27/17 A2992 RMK A01 T02700171  RH  055%=      5-min Rain = 0
KAHS 190928Z 19013KT 27/17 A2991 RMK A01 T02700171  RH  055%=      5-min Rain = 0
KAHS 190929Z 20012KT 27/17 A2991 RMK A01 T02710171  RH  054%=      5-min Rain = 0
KAHS 190930Z 19009KT 27/17 A2992 RMK A01 T02710171  RH  054%=      5-min Rain = 0
KAHS 190931Z 18009KT 27/17 A2992 RMK A01 T02700171  RH  055%=      5-min Rain = 0
KAHS 190932Z 18009KT 27/17 A2991 RMK A01 T02700172  RH  055%=      5-min Rain = 0
KAHS 190933Z 19012G18KT 27/17 A2992 RMK A01 T02690172  RH  055%=      5-min Rain = 0
KAHS 190934Z 19012G18KT 27/17 A2992 RMK A01 T02700172  RH  055%=      5-min Rain = 0
KAHS 190935Z 18009KT 27/17 A2992 RMK A01 T02700172  RH  055%=      5-min Rain = 0
KAHS 190936Z 18010KT 27/17 A2992 RMK A01 T02690173  RH  055%=      5-min Rain = 0
KAHS 190937Z 19007KT 27/17 A2992 RMK A01 T02690173  RH  056%=      5-min Rain = 0
KAHS 190938Z 18007G12KT 27/17 A2991 RMK A01 T02690173  RH  056%=      5-min Rain = 0
KAHS 190939Z 18009KT 27/17 A2992 RMK A01 T02680173  RH  056%=      5-min Rain = 0
KAHS 190940Z 19009KT 27/17 A2992 RMK A01 T02680173  RH  056%=      5-min Rain = 0
KAHS 190941Z 19010KT 27/17 A2992 RMK A01 T02670173  RH  056%=      5-min Rain = 0
KAHS 190942Z 18012KT 27/17 A2991 RMK A01 T02670173  RH  056%=      5-min Rain = 0
KAHS 190943Z 19011KT 27/17 A2991 RMK A01 T02680173  RH  056%=      5-min Rain = 0
KAHS 190944Z 19012KT 27/17 A2991 RMK A01 T02680173  RH  056%=      5-min Rain = 0
KAHS 190945Z 18010KT 27/17 A2991 RMK A01 T02680174  RH  056%=      5-min Rain = 0
KAHS 190946Z 19012KT 27/17 A2991 RMK A01 T02680173  RH  056%=      5-min Rain = 0
KAHS 190947Z 19014G19KT 27/17 A2991 RMK A01 T02680174  RH  056%=      5-min Rain = 0
KAHS 190948Z 19013G19KT 27/17 A2991 RMK A01 T02680174  RH  056%=      5-min Rain = 0
KAHS 190949Z 19010KT 27/17 A2991 RMK A01 T02680174  RH  056%=      5-min Rain = 0
KAHS 190950Z 18011KT 27/18 A2991 RMK A01 T02680175  RH  057%=      5-min Rain = 0
KAHS 190951Z 18013KT 27/17 A2991 RMK A01 T02680174  RH  057%=      5-min Rain = 0
KAHS 190952Z 19010KT 27/18 A2991 RMK A01 T02670175  RH  057%=      5-min Rain = 0
KAHS 190953Z 19009KT 27/18 A2991 RMK A01 T02670175  RH  057%=      5-min Rain = 0
KAHS 190954Z 19010KT 27/18 A2991 RMK A01 T02660176  RH  058%=      5-min Rain = 0
KAHS 190955Z 19009KT 27/18 A2991 RMK A01 T02670177  RH  058%=      5-min Rain = 0
KAHS 190956Z 19011KT 27/18 A2991 RMK A01 T02670177  RH  058%=      5-min Rain = 0
KAHS 190957Z 19012KT 27/18 A2991 RMK A01 T02670178  RH  058%=      5-min Rain = 0
KAHS 190958Z 18011KT 27/18 A2991 RMK A01 T02670178  RH  058%=      5-min Rain = 0
KAHS 190959Z 18009KT 27/18 A2991 RMK A01 T02670177  RH  058%=      5-min Rain = 0
KAHS 191000Z 20010KT 27/18 A2991 RMK A01 T02670178  RH  058%=      5-min Rain = 0
KAHS 191001Z 19009KT 27/18 A2991 RMK A01 T02660178  RH  058%=      5-min Rain = 0
KAHS 191002Z 19008KT 27/18 A2991 RMK A01 T02660178  RH  059%=      5-min Rain = 0
KAHS 191003Z 20007G14KT 27/18 A2991 RMK A01 T02650178  RH  059%=      5-min Rain = 0
KAHS 191004Z 20012KT 27/18 A2991 RMK A01 T02650178  RH  059%=      5-min Rain = 0
KAHS 191005Z 19011KT 27/18 A2991 RMK A01 T02660178  RH  059%=      5-min Rain = 0
KAHS 191006Z 19011KT 27/18 A2991 RMK A01 T02660178  RH  058%=      5-min Rain = 0
KAHS 191007Z 20010KT 27/18 A2991 RMK A01 T02650178  RH  059%=      5-min Rain = 0
KAHS 191008Z 19009KT 27/18 A2991 RMK A01 T02660178  RH  059%=      5-min Rain = 0
KAHS 191009Z 20011G16KT 27/18 A2991 RMK A01 T02650179  RH  059%=      5-min Rain = 0
KAHS 191010Z 20011G16KT 27/18 A2991 RMK A01 T02660178  RH  059%=      5-min Rain = 0
KAHS 191011Z 20010KT 27/18 A2991 RMK A01 T02660178  RH  059%=      5-min Rain = 0
KAHS 191012Z 19010KT 27/18 A2991 RMK A01 T02650178  RH  059%=      5-min Rain = 0
KAHS 191013Z 19009G14KT 27/18 A2991 RMK A01 T02650179  RH  059%=      5-min Rain = 0
KAHS 191014Z 19011KT 27/18 A2991 RMK A01 T02650180  RH  059%=      5-min Rain = 0
KAHS 191015Z 20010KT 27/18 A2991 RMK A01 T02650180  RH  060%=      5-min Rain = 0
KAHS 191016Z 20012G17KT 27/18 A2991 RMK A01 T02650180  RH  060%=      5-min Rain = 0
KAHS 191017Z 19010KT 27/18 A2992 RMK A01 T02650180  RH  059%=      5-min Rain = 0
KAHS 191018Z 20011KT 27/18 A2992 RMK A01 T02650179  RH  059%=      5-min Rain = 0
KAHS 191019Z 20008KT 26/18 A2992 RMK A01 T02640180  RH  060%=      5-min Rain = 0
KAHS 191020Z 20010KT 26/18 A2992 RMK A01 T02640180  RH  060%=      5-min Rain = 0
KAHS 191021Z 21008KT 26/18 A2992 RMK A01 T02640180  RH  060%=      5-min Rain = 0
KAHS 191022Z 20010KT 26/18 A2992 RMK A01 T02630180  RH  060%=      5-min Rain = 0
KAHS 191023Z 21011KT 26/18 A2992 RMK A01 T02630180  RH  060%=      5-min Rain = 0
KAHS 191024Z 20010KT 26/18 A2992 RMK A01 T02630180  RH  060%=      5-min Rain = 0
KAHS 191025Z 20008KT 26/18 A2992 RMK A01 T02630181  RH  061%=      5-min Rain = 0
KAHS 191026Z 19007KT 26/18 A2992 RMK A01 T02620181  RH  061%=      5-min Rain = 0
KAHS 191027Z 20008KT 26/18 A2992 RMK A01 T02620181  RH  061%=      5-min Rain = 0
KAHS 191028Z 20010KT 26/18 A2992 RMK A01 T02620181  RH  061%=      5-min Rain = 0
KAHS 191029Z 20011KT 26/18 A2992 RMK A01 T02620181  RH  061%=      5-min Rain = 0
KAHS 191030Z 20008KT 26/18 A2992 RMK A01 T02620182  RH  061%=      5-min Rain = 0
KAHS 191031Z 20007G12KT 26/18 A2992 RMK A01 T02620182  RH  061%=      5-min Rain = 0
KAHS 191032Z 20011KT 26/18 A2992 RMK A01 T02610181  RH  062%=      5-min Rain = 0
KAHS 191033Z 19008KT 26/18 A2992 RMK A01 T02620182  RH  061%=      5-min Rain = 0
KAHS 191034Z 20008KT 26/18 A2992 RMK A01 T02610182  RH  062%=      5-min Rain = 0
KAHS 191035Z 20010KT 26/18 A2992 RMK A01 T02610182  RH  062%=      5-min Rain = 0
KAHS 191036Z 20008KT 26/18 A2992 RMK A01 T02610183  RH  062%=      5-min Rain = 0
KAHS 191037Z 20008KT 26/18 A2992 RMK A01 T02610183  RH  062%=      5-min Rain = 0
KAHS 191038Z 20007KT 26/18 A2992 RMK A01 T02610184  RH  062%=      5-min Rain = 0
KAHS 191039Z 20006KT 26/18 A2992 RMK A01 T02600183  RH  063%=      5-min Rain = 0
KAHS 191040Z 20007KT 26/18 A2992 RMK A01 T02600184  RH  063%=      5-min Rain = 0
KAHS 191041Z 20008KT 26/18 A2992 RMK A01 T02600184  RH  063%=      5-min Rain = 0
KAHS 191042Z 20008KT 26/18 A2992 RMK A01 T02600183  RH  063%=      5-min Rain = 0
KAHS 191043Z 20008KT 26/18 A2992 RMK A01 T02600184  RH  063%=      5-min Rain = 0
KAHS 191044Z 19008KT 26/19 A2992 RMK A01 T02600185  RH  063%=      5-min Rain = 0
KAHS 191045Z 19006KT 26/19 A2993 RMK A01 T02600186  RH  064%=      5-min Rain = 0
KAHS 191046Z 19005KT 26/19 A2993 RMK A01 T02600186  RH  064%=      5-min Rain = 0
KAHS 191047Z 20007G12KT 26/19 A2993 RMK A01 T02590186  RH  064%=      5-min Rain = 0
KAHS 191048Z 20009KT 26/19 A2993 RMK A01 T02590186  RH  064%=      5-min Rain = 0
KAHS 191049Z 20008KT 26/19 A2993 RMK A01 T02600186  RH  064%=      5-min Rain = 0
KAHS 191050Z 21008KT 26/19 A2993 RMK A01 T02590186  RH  064%=      5-min Rain = 0
KAHS 191051Z 20006KT 26/19 A2993 RMK A01 T02590186  RH  064%=      5-min Rain = 0
KAHS 191052Z 21006KT 26/19 A2993 RMK A01 T02590185  RH  064%=      5-min Rain = 0
KAHS 191053Z 20006KT 26/19 A2993 RMK A01 T02580185  RH  064%=      5-min Rain = 0
KAHS 191054Z 21004KT 26/19 A2993 RMK A01 T02580185  RH  064%=      5-min Rain = 0
KAHS 191055Z 20007KT 26/19 A2993 RMK A01 T02570185  RH  064%=      5-min Rain = 0
KAHS 191056Z 19006KT 26/19 A2993 RMK A01 T02580186  RH  065%=      5-min Rain = 0
KAHS 191057Z 21006KT 26/19 A2993 RMK A01 T02580186  RH  065%=      5-min Rain = 0
KAHS 191058Z 20006KT 26/19 A2993 RMK A01 T02580186  RH  065%=      5-min Rain = 0
KAHS 191059Z 21006KT 26/19 A2993 RMK A01 T02570186  RH  065%=      5-min Rain = 0
KAHS 191100Z 20007KT 26/19 A2993 RMK A01 T02570186  RH  065%=      5-min Rain = 0
KAHS 191101Z 20006KT 26/19 A2993 RMK A01 T02560186  RH  065%=      5-min Rain = 0
KAHS 191102Z 20008KT 26/19 A2993 RMK A01 T02560186  RH  065%=      5-min Rain = 0
KAHS 191103Z 22007KT 26/19 A2993 RMK A01 T02570186  RH  065%=      5-min Rain = 0
KAHS 191104Z 20006KT 26/19 A2993 RMK A01 T02560186  RH  065%=      5-min Rain = 0
KAHS 191105Z 21006KT 26/19 A2993 RMK A01 T02560186  RH  065%=      5-min Rain = 0
KAHS 191106Z 22004KT 26/19 A2993 RMK A01 T02560186  RH  065%=      5-min Rain = 0
KAHS 191107Z 21006KT 26/19 A2993 RMK A01 T02550186  RH  066%=      5-min Rain = 0
KAHS 191108Z 20007KT 26/19 A2993 RMK A01 T02560187  RH  066%=      5-min Rain = 0
KAHS 191109Z 21007KT 26/19 A2993 RMK A01 T02560187  RH  065%=      5-min Rain = 0
KAHS 191110Z 20010KT 26/19 A2993 RMK A01 T02560187  RH  066%=      5-min Rain = 0
KAHS 191111Z 21008KT 26/19 A2993 RMK A01 T02560187  RH  066%=      5-min Rain = 0
KAHS 191112Z 20006KT 26/19 A2993 RMK A01 T02560187  RH  066%=      5-min Rain = 0
KAHS 191113Z 21007KT 26/19 A2993 RMK A01 T02550186  RH  066%=      5-min Rain = 0
KAHS 191114Z 20008KT 25/19 A2993 RMK A01 T02540187  RH  066%=      5-min Rain = 0
KAHS 191115Z 20005KT 25/19 A2993 RMK A01 T02540187  RH  066%=      5-min Rain = 0
KAHS 191116Z 20007KT 25/19 A2993 RMK A01 T02540187  RH  066%=      5-min Rain = 0
KAHS 191117Z 21007KT 25/19 A2993 RMK A01 T02540187  RH  067%=      5-min Rain = 0
KAHS 191118Z 20007KT 25/19 A2993 RMK A01 T02530187  RH  067%=      5-min Rain = 0
KAHS 191119Z 21006KT 25/19 A2993 RMK A01 T02530187  RH  067%=      5-min Rain = 0
KAHS 191120Z 20007KT 25/19 A2993 RMK A01 T02530187  RH  067%=      5-min Rain = 0
KAHS 191121Z 21008KT 25/19 A2993 RMK A01 T02530187  RH  067%=      5-min Rain = 0
KAHS 191122Z 22008KT 25/19 A2993 RMK A01 T02530187  RH  067%=      5-min Rain = 0
KAHS 191123Z 20011KT 25/19 A2993 RMK A01 T02540188  RH  067%=      5-min Rain = 0
KAHS 191124Z 20007KT 25/19 A2993 RMK A01 T02540187  RH  067%=      5-min Rain = 0
KAHS 191125Z 20007KT 25/19 A2993 RMK A01 T02530187  RH  067%=      5-min Rain = 0
KAHS 191126Z 21007KT 25/19 A2993 RMK A01 T02530187  RH  067%=      5-min Rain = 0
KAHS 191127Z 21008KT 25/19 A2993 RMK A01 T02530187  RH  067%=      5-min Rain = 0
KAHS 191128Z 20007KT 25/19 A2993 RMK A01 T02520188  RH  067%=      5-min Rain = 0
KAHS 191129Z 20008KT 25/19 A2993 RMK A01 T02520188  RH  068%=      5-min Rain = 0
KAHS 191130Z 20010KT 25/19 A2993 RMK A01 T02520188  RH  068%=      5-min Rain = 0
KAHS 191131Z 21007KT 25/19 A2993 RMK A01 T02520188  RH  067%=      5-min Rain = 0
KAHS 191132Z 20007KT 25/19 A2993 RMK A01 T02520188  RH  068%=      5-min Rain = 0
KAHS 191133Z 20008KT 25/19 A2993 RMK A01 T02520188  RH  068%=      5-min Rain = 0
KAHS 191134Z 20009KT 25/19 A2994 RMK A01 T02510188  RH  068%=      5-min Rain = 0
KAHS 191135Z 20009KT 25/19 A2994 RMK A01 T02510188  RH  068%=      5-min Rain = 0
KAHS 191136Z 20009KT 25/19 A2994 RMK A01 T02510188  RH  068%=      5-min Rain = 0
KAHS 191137Z 21008KT 25/19 A2993 RMK A01 T02510188  RH  068%=      5-min Rain = 0
KAHS 191138Z 20010KT 25/19 A2994 RMK A01 T02520189  RH  068%=      5-min Rain = 0
KAHS 191139Z 20010KT 25/19 A2994 RMK A01 T02520189  RH  068%=      5-min Rain = 0
KAHS 191140Z 20010KT 25/19 A2994 RMK A01 T02520189  RH  068%=      5-min Rain = 0
KAHS 191141Z 21010KT 25/19 A2994 RMK A01 T02520189  RH  068%=      5-min Rain = 0
KAHS 191142Z 20008KT 25/19 A2994 RMK A01 T02520189  RH  068%=      5-min Rain = 0
KAHS 191143Z 20010KT 25/19 A2994 RMK A01 T02520189  RH  068%=      5-min Rain = 0
KAHS 191144Z 20008KT 25/19 A2994 RMK A01 T02520189  RH  068%=      5-min Rain = 0
KAHS 191145Z 20009KT 25/19 A2994 RMK A01 T02510189  RH  069%=      5-min Rain = 0
KAHS 191146Z 19010KT 25/19 A2994 RMK A01 T02510190  RH  069%=      5-min Rain = 0
KAHS 191147Z 20009KT 25/19 A2994 RMK A01 T02500190  RH  069%=      5-min Rain = 0
KAHS 191148Z 20010KT 25/19 A2993 RMK A01 T02510190  RH  069%=      5-min Rain = 0
KAHS 191149Z 20008G13KT 25/19 A2993 RMK A01 T02500190  RH  069%=      5-min Rain = 0
KAHS 191150Z 19010KT 25/19 A2993 RMK A01 T02510190  RH  069%=      5-min Rain = 0
KAHS 191151Z 20010KT 25/19 A2994 RMK A01 T02500190  RH  069%=      5-min Rain = 0
KAHS 191152Z 19009KT 25/19 A2994 RMK A01 T02500190  RH  069%=      5-min Rain = 0
KAHS 191153Z 19011KT 25/19 A2993 RMK A01 T02510190  RH  069%=      5-min Rain = 0
KAHS 191154Z 20010KT 25/19 A2994 RMK A01 T02500190  RH  069%=      5-min Rain = 0
KAHS 191155Z 20012KT 25/19 A2994 RMK A01 T02500190  RH  069%=      5-min Rain = 0
KAHS 191156Z 20010KT 25/19 A2994 RMK A01 T02510190  RH  069%=      5-min Rain = 0
KAHS 191157Z 20011KT 25/19 A2994 RMK A01 T02510190  RH  069%=      5-min Rain = 0
KAHS 191158Z 20011KT 25/19 A2993 RMK A01 T02510191  RH  069%=      5-min Rain = 0
KAHS 191159Z 19011KT 25/19 A2993 RMK A01 T02510190  RH  069%=      5-min Rain = 0
KAHS 191200Z 20011KT 25/19 A2993 RMK A01 T02510191  RH  069%=      5-min Rain = 0
KAHS 191201Z 20010KT 25/19 A2993 RMK A01 T02510191  RH  069%=      5-min Rain = 0
KAHS 191202Z 20010G15KT 25/19 A2993 RMK A01 T02500191  RH  069%=      5-min Rain = 0
KAHS 191203Z 20013G18KT 25/19 A2993 RMK A01 T02510191  RH  069%=      5-min Rain = 0
KAHS 191204Z 19011KT 25/19 A2993 RMK A01 T02510191  RH  069%=      5-min Rain = 0
KAHS 191205Z 19014KT 25/19 A2993 RMK A01 T02510191  RH  069%=      5-min Rain = 0
KAHS 191206Z 20011KT 25/19 A2993 RMK A01 T02510191  RH  069%=      5-min Rain = 0
KAHS 191207Z 19010KT 25/19 A2993 RMK A01 T02510191  RH  069%=      5-min Rain = 0
KAHS 191208Z 19010KT 25/19 A2993 RMK A01 T02510191  RH  070%=      5-min Rain = 0
KAHS 191209Z 20013KT 25/19 A2993 RMK A01 T02510191  RH  070%=      5-min Rain = 0
KAHS 191210Z 20013KT 25/19 A2993 RMK A01 T02510191  RH  070%=      5-min Rain = 0
KAHS 191211Z 19013KT 25/19 A2993 RMK A01 T02510192  RH  070%=      5-min Rain = 0
KAHS 191212Z 20013KT 25/19 A2993 RMK A01 T02510191  RH  069%=      5-min Rain = 0
KAHS 191213Z 19012KT 25/19 A2993 RMK A01 T02510191  RH  069%=      5-min Rain = 0
KAHS 191214Z 20013KT 25/19 A2993 RMK A01 T02510192  RH  069%=      5-min Rain = 0
KAHS 191215Z 19010KT 25/19 A2993 RMK A01 T02520192  RH  069%=      5-min Rain = 0
KAHS 191216Z 19011KT 25/19 A2993 RMK A01 T02520192  RH  069%=      5-min Rain = 0
KAHS 191217Z 20012G17KT 25/19 A2993 RMK A01 T02510192  RH  070%=      5-min Rain = 0
KAHS 191218Z 20013G18KT 25/19 A2993 RMK A01 T02510192  RH  070%=      5-min Rain = 0
KAHS 191219Z 19012KT 25/19 A2993 RMK A01 T02520192  RH  069%=      5-min Rain = 0
KAHS 191220Z 19013KT 25/19 A2993 RMK A01 T02520192  RH  069%=      5-min Rain = 0
KAHS 191221Z 18012KT 25/19 A2993 RMK A01 T02520192  RH  069%=      5-min Rain = 0
KAHS 191222Z 19011KT 25/19 A2993 RMK A01 T02520192  RH  070%=      5-min Rain = 0
KAHS 191223Z 19014KT 25/19 A2993 RMK A01 T02520192  RH  070%=      5-min Rain = 0
KAHS 191224Z 19012KT 25/19 A2993 RMK A01 T02520192  RH  069%=      5-min Rain = 0
KAHS 191225Z 19012G17KT 25/19 A2993 RMK A01 T02520192  RH  069%=      5-min Rain = 0
KAHS 191226Z 19013KT 25/19 A2993 RMK A01 T02520192  RH  069%=      5-min Rain = 0
KAHS 191227Z 19012G17KT 25/19 A2993 RMK A01 T02530193  RH  069%=      5-min Rain = 0
KAHS 191228Z 19013KT 25/19 A2993 RMK A01 T02530193  RH  069%=      5-min Rain = 0
KAHS 191229Z 19018KT 25/19 A2993 RMK A01 T02530193  RH  069%=      5-min Rain = 0
KAHS 191230Z 19015KT 25/19 A2993 RMK A01 T02540193  RH  069%=      5-min Rain = 0
KAHS 191231Z 20013KT 25/19 A2994 RMK A01 T02540193  RH  069%=      5-min Rain = 0
KAHS 191232Z 19011KT 25/19 A2994 RMK A01 T02540193  RH  069%=      5-min Rain = 0
KAHS 191233Z 19013KT 25/19 A2994 RMK A01 T02540193  RH  069%=      5-min Rain = 0
KAHS 191234Z 18011G16KT 25/19 A2994 RMK A01 T02540193  RH  069%=      5-min Rain = 0
KAHS 191235Z 19011KT 25/19 A2994 RMK A01 T02540193  RH  069%=      5-min Rain = 0
KAHS 191236Z 19012KT 25/19 A2994 RMK A01 T02540193  RH  069%=      5-min Rain = 0
KAHS 191237Z 19012KT 25/19 A2994 RMK A01 T02540193  RH  069%=      5-min Rain = 0
KAHS 191238Z 19013KT 25/19 A2993 RMK A01 T02540194  RH  069%=      5-min Rain = 0
KAHS 191239Z 19014KT 25/19 A2993 RMK A01 T02540194  RH  069%=      5-min Rain = 0
KAHS 191240Z 18013KT 25/19 A2993 RMK A01 T02540194  RH  069%=      5-min Rain = 0
KAHS 191241Z 19011KT 26/19 A2993 RMK A01 T02550194  RH  069%=      5-min Rain = 0
KAHS 191242Z 19013KT 26/19 A2993 RMK A01 T02550194  RH  069%=      5-min Rain = 0
KAHS 191243Z 20012KT 26/19 A2993 RMK A01 T02550194  RH  069%=      5-min Rain = 0
KAHS 191244Z 19011G17KT 26/19 A2993 RMK A01 T02550194  RH  069%=      5-min Rain = 0
KAHS 191245Z 18011G16KT 26/19 A2993 RMK A01 T02550194  RH  069%=      5-min Rain = 0
KAHS 191246Z 19015KT 26/20 A2993 RMK A01 T02560195  RH  069%=      5-min Rain = 0
KAHS 191247Z 19012G18KT 26/19 A2993 RMK A01 T02560194  RH  069%=      5-min Rain = 0
KAHS 191248Z 19011KT 26/19 A2993 RMK A01 T02560194  RH  069%=      5-min Rain = 0
KAHS 191249Z 19010G15KT 26/20 A2993 RMK A01 T02560195  RH  069%=      5-min Rain = 0
KAHS 191250Z 20013KT 26/20 A2993 RMK A01 T02560195  RH  069%=      5-min Rain = 0
KAHS 191251Z 19014KT 26/19 A2993 RMK A01 T02560194  RH  069%=      5-min Rain = 0
KAHS 191252Z 19010G16KT 26/20 A2994 RMK A01 T02560195  RH  069%=      5-min Rain = 0
KAHS 191253Z 19009KT 26/20 A2994 RMK A01 T02570195  RH  069%=      5-min Rain = 0
KAHS 191254Z 20013KT 26/20 A2994 RMK A01 T02580195  RH  068%=      5-min Rain = 0
KAHS 191255Z 20009KT 26/19 A2994 RMK A01 T02570194  RH  068%=      5-min Rain = 0
KAHS 191256Z 19014G19KT 26/19 A2994 RMK A01 T02580194  RH  068%=      5-min Rain = 0
KAHS 191257Z 20010G15KT 26/19 A2994 RMK A01 T02580194  RH  068%=      5-min Rain = 0
KAHS 191258Z 19012KT 26/19 A2994 RMK A01 T02580194  RH  068%=      5-min Rain = 0
KAHS 191259Z 20010KT 26/20 A2994 RMK A01 T02590195  RH  068%=      5-min Rain = 0
KAHS 191300Z 19011KT 26/19 A2994 RMK A01 T02590194  RH  067%=      5-min Rain = 0
KAHS 191301Z 20012KT 26/19 A2994 RMK A01 T02590194  RH  067%=      5-min Rain = 0
KAHS 191302Z 18015KT 26/19 A2994 RMK A01 T02600194  RH  067%=      5-min Rain = 0
KAHS 191303Z 19014KT 26/19 A2994 RMK A01 T02600194  RH  067%=      5-min Rain = 0
KAHS 191304Z 20011KT 26/19 A2994 RMK A01 T02600193  RH  067%=      5-min Rain = 0
KAHS 191305Z 19009KT 26/19 A2994 RMK A01 T02600194  RH  067%=      5-min Rain = 0
KAHS 191306Z 19012KT 26/19 A2994 RMK A01 T02600194  RH  067%=      5-min Rain = 0
KAHS 191307Z 20012KT 26/19 A2994 RMK A01 T02610194  RH  067%=      5-min Rain = 0
KAHS 191308Z 20011KT 26/19 A2994 RMK A01 T02610194  RH  066%=      5-min Rain = 0
KAHS 191309Z 20011KT 26/19 A2994 RMK A01 T02620194  RH  066%=      5-min Rain = 0
KAHS 191310Z 20007KT 26/19 A2994 RMK A01 T02630194  RH  066%=      5-min Rain = 0
KAHS 191311Z 19007KT 26/20 A2994 RMK A01 T02640195  RH  066%=      5-min Rain = 0
KAHS 191312Z 19012KT 26/19 A2994 RMK A01 T02640194  RH  066%=      5-min Rain = 0
KAHS 191313Z 19012KT 26/19 A2994 RMK A01 T02640194  RH  066%=      5-min Rain = 0
KAHS 191314Z 19010KT 26/19 A2994 RMK A01 T02640194  RH  065%=      5-min Rain = 0
KAHS 191315Z 21009KT 26/19 A2994 RMK A01 T02640194  RH  065%=      5-min Rain = 0
KAHS 191316Z 19012KT 26/19 A2994 RMK A01 T02640194  RH  065%=      5-min Rain = 0
KAHS 191317Z 20012KT 26/19 A2994 RMK A01 T02640194  RH  065%=      5-min Rain = 0
KAHS 191318Z 20010KT 26/19 A2994 RMK A01 T02640194  RH  065%=      5-min Rain = 0
KAHS 191319Z 20012KT 27/19 A2994 RMK A01 T02650194  RH  065%=      5-min Rain = 0
KAHS 191320Z 19012KT 27/19 A2994 RMK A01 T02650193  RH  065%=      5-min Rain = 0
KAHS 191321Z 20012KT 27/19 A2994 RMK A01 T02650193  RH  065%=      5-min Rain = 0
KAHS 191322Z 21014KT 27/19 A2994 RMK A01 T02650192  RH  064%=      5-min Rain = 0
KAHS 191323Z 21010KT 27/19 A2994 RMK A01 T02650193  RH  064%=      5-min Rain = 0
KAHS 191324Z 20008KT 27/19 A2994 RMK A01 T02650193  RH  065%=      5-min Rain = 0
KAHS 191325Z 19012G18KT 27/19 A2994 RMK A01 T02670194  RH  064%=      5-min Rain = 0
KAHS 191326Z 19013KT 27/19 A2994 RMK A01 T02670194  RH  064%=      5-min Rain = 0
KAHS 191327Z 19011KT 27/19 A2994 RMK A01 T02660194  RH  064%=      5-min Rain = 0
KAHS 191328Z 18011KT 27/19 A2994 RMK A01 T02660194  RH  065%=      5-min Rain = 0
KAHS 191329Z 18009KT 27/20 A2994 RMK A01 T02670195  RH  065%=      5-min Rain = 0
KAHS 191330Z 19009KT 27/20 A2994 RMK A01 T02680195  RH  064%=      5-min Rain = 0
KAHS 191331Z 18010G15KT 27/20 A2994 RMK A01 T02690195  RH  064%=      5-min Rain = 0
KAHS 191332Z 19010KT 27/20 A2994 RMK A01 T02690195  RH  064%=      5-min Rain = 0
KAHS 191333Z 19011KT 27/20 A2994 RMK A01 T02690195  RH  064%=      5-min Rain = 0
KAHS 191334Z 19012KT 27/19 A2994 RMK A01 T02690194  RH  063%=      5-min Rain = 0
KAHS 191335Z 19011KT 27/19 A2994 RMK A01 T02690194  RH  064%=      5-min Rain = 0
KAHS 191336Z 20014KT 27/19 A2994 RMK A01 T02690194  RH  063%=      5-min Rain = 0
KAHS 191337Z 20012KT 27/19 A2994 RMK A01 T02690192  RH  063%=      5-min Rain = 0
KAHS 191338Z 20013KT 27/19 A2994 RMK A01 T02690191  RH  062%=      5-min Rain = 0
KAHS 191339Z 20014KT 27/19 A2994 RMK A01 T02700192  RH  062%=      5-min Rain = 0
KAHS 191340Z 20014KT 27/19 A2994 RMK A01 T02700192  RH  062%=      5-min Rain = 0
KAHS 191341Z 19012KT 27/19 A2994 RMK A01 T02700192  RH  062%=      5-min Rain = 0
KAHS 191342Z 18010KT 27/19 A2994 RMK A01 T02700193  RH  063%=      5-min Rain = 0
KAHS 191343Z 19009G16KT 27/19 A2994 RMK A01 T02710194  RH  063%=      5-min Rain = 0
KAHS 191344Z 20009KT 27/20 A2994 RMK A01 T02730195  RH  062%=      5-min Rain = 0
KAHS 191345Z 19012KT 27/19 A2994 RMK A01 T02730193  RH  062%=      5-min Rain = 0
KAHS 191346Z 19009G14KT 27/19 A2994 RMK A01 T02730194  RH  062%=      5-min Rain = 0
KAHS 191347Z 21014KT 27/19 A2994 RMK A01 T02730192  RH  061%=      5-min Rain = 0
KAHS 191348Z 20011KT 27/19 A2994 RMK A01 T02730192  RH  061%=      5-min Rain = 0
KAHS 191349Z 20013KT 27/19 A2994 RMK A01 T02740192  RH  061%=      5-min Rain = 0
KAHS 191350Z 19012KT 27/19 A2994 RMK A01 T02730190  RH  061%=      5-min Rain = 0
KAHS 191351Z 19011KT 27/19 A2994 RMK A01 T02740191  RH  061%=      5-min Rain = 0
KAHS 191352Z 20015KT 27/19 A2994 RMK A01 T02730190  RH  060%=      5-min Rain = 0
KAHS 191353Z 20013KT 27/19 A2994 RMK A01 T02730191  RH  061%=      5-min Rain = 0
KAHS 191354Z 20015G22KT 27/19 A2994 RMK A01 T02740191  RH  060%=      5-min Rain = 0
KAHS 191355Z 20015KT 27/19 A2994 RMK A01 T02740190  RH  060%=      5-min Rain = 0
KAHS 191356Z 19014G20KT 27/19 A2994 RMK A01 T02740190  RH  060%=      5-min Rain = 0
KAHS 191357Z 20009KT 28/19 A2995 RMK A01 T02750191  RH  060%=      5-min Rain = 0
KAHS 191358Z 19010G15KT 28/19 A2995 RMK A01 T02770190  RH  059%=      5-min Rain = 0
KAHS 191359Z 20012G21KT 28/19 A2995 RMK A01 T02790191  RH  059%=      5-min Rain = 0
KAHS 191400Z 20015G21KT 28/19 A2994 RMK A01 T02770188  RH  058%=      5-min Rain = 0
KAHS 191401Z 21011KT 28/19 A2995 RMK A01 T02770189  RH  059%=      5-min Rain = 0
KAHS 191402Z 21013G18KT 28/19 A2995 RMK A01 T02770190  RH  059%=      5-min Rain = 0
KAHS 191403Z 21011KT 28/19 A2995 RMK A01 T02780190  RH  059%=      5-min Rain = 0
KAHS 191404Z 20011KT 28/19 A2995 RMK A01 T02790190  RH  058%=      5-min Rain = 0
KAHS 191405Z 19010KT 28/19 A2995 RMK A01 T02800191  RH  058%=      5-min Rain = 0
KAHS 191406Z 20011G19KT 28/19 A2995 RMK A01 T02810191  RH  058%=      5-min Rain = 0
KAHS 191407Z 21016KT 28/19 A2994 RMK A01 T02790188  RH  058%=      5-min Rain = 0
KAHS 191408Z 20017KT 28/19 A2994 RMK A01 T02780188  RH  058%=      5-min Rain = 0
KAHS 191409Z 21013KT 28/19 A2995 RMK A01 T02780188  RH  058%=      5-min Rain = 0
KAHS 191410Z 20011KT 28/19 A2995 RMK A01 T02790189  RH  058%=      5-min Rain = 0
KAHS 191411Z 20013KT 28/19 A2995 RMK A01 T02800188  RH  057%=      5-min Rain = 0
KAHS 191412Z 20015KT 28/19 A2994 RMK A01 T02800188  RH  057%=      5-min Rain = 0
KAHS 191413Z 19013KT 28/19 A2995 RMK A01 T02800188  RH  057%=      5-min Rain = 0
KAHS 191414Z 19013G18KT 28/19 A2994 RMK A01 T02800188  RH  057%=      5-min Rain = 0
KAHS 191415Z 19009G16KT 28/19 A2995 RMK A01 T02820191  RH  057%=      5-min Rain = 0
KAHS 191416Z 19016G21KT 28/19 A2995 RMK A01 T02830189  RH  057%=      5-min Rain = 0
KAHS 191417Z 19018KT 28/19 A2994 RMK A01 T02810187  RH  057%=      5-min Rain = 0
KAHS 191418Z 20018KT 28/19 A2994 RMK A01 T02800187  RH  057%=      5-min Rain = 0
KAHS 191419Z 20015KT 28/19 A2995 RMK A01 T02790187  RH  057%=      5-min Rain = 0
KAHS 191420Z 21013KT 28/19 A2995 RMK A01 T02790187  RH  057%=      5-min Rain = 0
KAHS 191421Z 19010G19KT 28/19 A2995 RMK A01 T02820189  RH  057%=      5-min Rain = 0
KAHS 191422Z 19018KT 28/19 A2994 RMK A01 T02830188  RH  056%=      5-min Rain = 0
KAHS 191423Z 20015KT 28/19 A2994 RMK A01 T02800187  RH  057%=      5-min Rain = 0
KAHS 191424Z 19016KT 28/19 A2995 RMK A01 T02800187  RH  057%=      5-min Rain = 0
KAHS 191425Z 20015KT 28/19 A2995 RMK A01 T02800188  RH  057%=      5-min Rain = 0
KAHS 191426Z 19016KT 28/19 A2995 RMK A01 T02810189  RH  057%=      5-min Rain = 0
KAHS 191427Z 19013KT 28/19 A2995 RMK A01 T02810190  RH  058%=      5-min Rain = 0
KAHS 191428Z 19013KT 28/19 A2995 RMK A01 T02810190  RH  058%=      5-min Rain = 0
KAHS 191429Z 20013KT 28/19 A2995 RMK A01 T02820189  RH  057%=      5-min Rain = 0
KAHS 191430Z 19014KT 28/19 A2994 RMK A01 T02830190  RH  057%=      5-min Rain = 0
KAHS 191431Z 19015G21KT 28/19 A2994 RMK A01 T02830189  RH  057%=      5-min Rain = 0
KAHS 191432Z 19011KT 28/19 A2994 RMK A01 T02840191  RH  057%=      5-min Rain = 0
KAHS 191433Z 18016G22KT 28/19 A2994 RMK A01 T02840189  RH  056%=      5-min Rain = 0
KAHS 191434Z 19014G19KT 28/19 A2994 RMK A01 T02830189  RH  057%=      5-min Rain = 0
KAHS 191435Z 20012G17KT 28/19 A2994 RMK A01 T02830189  RH  057%=      5-min Rain = 0
KAHS 191436Z 20010G20KT 29/19 A2994 RMK A01 T02850190  RH  057%=      5-min Rain = 0
KAHS 191437Z 20015KT 28/19 A2994 RMK A01 T02840188  RH  056%=      5-min Rain = 0
KAHS 191438Z 20011KT 28/19 A2994 RMK A01 T02830190  RH  057%=      5-min Rain = 0
KAHS 191439Z 19013KT 29/19 A2994 RMK A01 T02860192  RH  056%=      5-min Rain = 0
KAHS 191440Z 19012KT 29/19 A2994 RMK A01 T02870191  RH  056%=      5-min Rain = 0
KAHS 191441Z 19011KT 29/19 A2994 RMK A01 T02880192  RH  056%=      5-min Rain = 0
KAHS 191442Z 19013G18KT 29/19 A2994 RMK A01 T02880191  RH  056%=      5-min Rain = 0
KAHS 191443Z 18015KT 29/19 A2994 RMK A01 T02870189  RH  055%=      5-min Rain = 0
KAHS 191444Z 19014KT 29/19 A2994 RMK A01 T02860190  RH  056%=      5-min Rain = 0
KAHS 191445Z 18014KT 29/19 A2994 RMK A01 T02850190  RH  056%=      5-min Rain = 0
KAHS 191446Z 18014KT 29/19 A2994 RMK A01 T02860191  RH  056%=      5-min Rain = 0
KAHS 191447Z 19013KT 29/19 A2994 RMK A01 T02870191  RH  056%=      5-min Rain = 0
KAHS 191448Z 20012KT 29/19 A2994 RMK A01 T02890191  RH  056%=      5-min Rain = 0
KAHS 191449Z 20013KT 29/19 A2994 RMK A01 T02900191  RH  055%=      5-min Rain = 0
KAHS 191450Z 19013KT 29/19 A2994 RMK A01 T02900191  RH  055%=      5-min Rain = 0
KAHS 191451Z 19012KT 29/19 A2994 RMK A01 T02900191  RH  055%=      5-min Rain = 0
KAHS 191452Z 21011KT 29/19 A2994 RMK A01 T02910190  RH  055%=      5-min Rain = 0
KAHS 191453Z 19012G17KT 29/19 A2994 RMK A01 T02910190  RH  055%=      5-min Rain = 0
KAHS 191454Z 20015KT 29/19 A2994 RMK A01 T02910189  RH  054%=      5-min Rain = 0
KAHS 191455Z 21015KT 29/19 A2994 RMK A01 T02910188  RH  054%=      5-min Rain = 0
KAHS 191456Z 20013KT 29/19 A2994 RMK A01 T02900188  RH  054%=      5-min Rain = 0
KAHS 191457Z 20013KT 29/19 A2994 RMK A01 T02900189  RH  054%=      5-min Rain = 0
KAHS 191458Z 20013G18KT 29/19 A2994 RMK A01 T02910190  RH  054%=      5-min Rain = 0
KAHS 191459Z 20014KT 29/19 A2994 RMK A01 T02930190  RH  054%=      5-min Rain = 0
KAHS 191500Z 19013G19KT 29/19 A2994 RMK A01 T02940190  RH  054%=      5-min Rain = 0
KAHS 191501Z 19014G20KT 29/19 A2994 RMK A01 T02920189  RH  054%=      5-min Rain = 0
KAHS 191502Z 20014KT 29/19 A2994 RMK A01 T02930190  RH  054%=      5-min Rain = 0
KAHS 191503Z 20013G18KT 29/19 A2994 RMK A01 T02940190  RH  053%=      5-min Rain = 0
KAHS 191504Z 20015KT 30/19 A2993 RMK A01 T02950188  RH  053%=      5-min Rain = 0
KAHS 191505Z 21013KT 30/19 A2993 RMK A01 T02960188  RH  052%=      5-min Rain = 0
KAHS 191506Z 20012KT 30/19 A2993 RMK A01 T02950188  RH  053%=      5-min Rain = 0
KAHS 191507Z 19011G18KT 30/19 A2994 RMK A01 T02980191  RH  053%=      5-min Rain = 0
KAHS 191508Z 19013KT 30/19 A2993 RMK A01 T02980190  RH  052%=      5-min Rain = 0
KAHS 191509Z 19015KT 30/19 A2993 RMK A01 T02970190  RH  053%=      5-min Rain = 0
KAHS 191510Z 20013KT 30/19 A2993 RMK A01 T02970190  RH  053%=      5-min Rain = 0
KAHS 191511Z 20013KT 30/19 A2993 RMK A01 T02970190  RH  052%=      5-min Rain = 0
KAHS 191512Z 19012KT 30/19 A2993 RMK A01 T02990190  RH  052%=      5-min Rain = 0
KAHS 191513Z 19014G19KT 30/19 A2994 RMK A01 T03000191  RH  052%=      5-min Rain = 0
KAHS 191514Z 19015KT 30/19 A2993 RMK A01 T02990189  RH  052%=      5-min Rain = 0
KAHS 191515Z 19015KT 30/19 A2993 RMK A01 T02970187  RH  052%=      5-min Rain = 0
KAHS 191516Z 19014KT 30/19 A2993 RMK A01 T02960188  RH  052%=      5-min Rain = 0
KAHS 191517Z 18014KT 30/19 A2993 RMK A01 T02970188  RH  052%=      5-min Rain = 0
KAHS 191518Z 19015KT 30/19 A2993 RMK A01 T02980188  RH  052%=      5-min Rain = 0
KAHS 191519Z 18014KT 30/19 A2993 RMK A01 T03000188  RH  051%=      5-min Rain = 0
KAHS 191520Z 19014KT 30/19 A2993 RMK A01 T03000189  RH  051%=      5-min Rain = 0
KAHS 191521Z 19017KT 30/19 A2993 RMK A01 T03000188  RH  051%=      5-min Rain = 0
KAHS 191522Z 19013G18KT 30/19 A2993 RMK A01 T02990188  RH  051%=      5-min Rain = 0
KAHS 191523Z 19015KT 30/19 A2993 RMK A01 T02990188  RH  051%=      5-min Rain = 0
KAHS 191524Z 19014KT 30/19 A2993 RMK A01 T03000188  RH  051%=      5-min Rain = 0
KAHS 191525Z 19015KT 30/19 A2993 RMK A01 T03010189  RH  051%=      5-min Rain = 0
KAHS 191526Z 19015G22KT 30/19 A2993 RMK A01 T03010189  RH  051%=      5-min Rain = 0
KAHS 191527Z 20014KT 30/19 A2993 RMK A01 T03020188  RH  051%=      5-min Rain = 0
KAHS 191528Z 20014KT 30/19 A2993 RMK A01 T03030188  RH  050%=      5-min Rain = 0
KAHS 191529Z 19013KT 30/19 A2993 RMK A01 T03030188  RH  050%=      5-min Rain = 0
KAHS 191530Z 19016KT 30/19 A2993 RMK A01 T03040188  RH  050%=      5-min Rain = 0
KAHS 191531Z 19015KT 30/19 A2993 RMK A01 T03020187  RH  050%=      5-min Rain = 0
KAHS 191532Z 19016KT 30/19 A2993 RMK A01 T03020188  RH  050%=      5-min Rain = 0
KAHS 191533Z 20015KT 30/19 A2993 RMK A01 T03030188  RH  050%=      5-min Rain = 0
KAHS 191534Z 20012KT 30/19 A2993 RMK A01 T03040189  RH  050%=      5-min Rain = 0
KAHS 191535Z 19011G16KT 31/19 A2993 RMK A01 T03060190  RH  050%=      5-min Rain = 0
KAHS 191536Z 20014KT 31/19 A2993 RMK A01 T03090190  RH  049%=      5-min Rain = 0
KAHS 191537Z 20013KT 31/19 A2993 RMK A01 T03080189  RH  049%=      5-min Rain = 0
KAHS 191538Z 19012KT 31/19 A2993 RMK A01 T03110190  RH  049%=      5-min Rain = 0
KAHS 191539Z 20013KT 31/19 A2993 RMK A01 T03120188  RH  048%=      5-min Rain = 0
KAHS 191540Z 21012G17KT 31/19 A2993 RMK A01 T03120187  RH  048%=      5-min Rain = 0
KAHS 191541Z 20013G18KT 31/19 A2993 RMK A01 T03140187  RH  047%=      5-min Rain = 0
KAHS 191542Z 20015KT 31/19 A2993 RMK A01 T03120185  RH  047%=      5-min Rain = 0
KAHS 191543Z 21013G19KT 31/19 A2993 RMK A01 T03120186  RH  047%=      5-min Rain = 0
KAHS 191544Z 21016KT 31/18 A2993 RMK A01 T03120184  RH  047%=      5-min Rain = 0
KAHS 191545Z 21014KT 31/19 A2993 RMK A01 T03100185  RH  047%=      5-min Rain = 0
KAHS 191546Z 21014KT 31/19 A2993 RMK A01 T03120186  RH  047%=      5-min Rain = 0
KAHS 191547Z 21013G18KT 31/19 A2993 RMK A01 T03110185  RH  047%=      5-min Rain = 0
KAHS 191548Z 21015G21KT 31/19 A2993 RMK A01 T03130186  RH  047%=      5-min Rain = 0
KAHS 191549Z 21012KT 31/19 A2993 RMK A01 T03120185  RH  047%=      5-min Rain = 0
KAHS 191550Z 21015KT 31/19 A2993 RMK A01 T03130185  RH  047%=      5-min Rain = 0
KAHS 191551Z 20015G20KT 31/19 A2993 RMK A01 T03120185  RH  047%=      5-min Rain = 0
KAHS 191552Z 19018G23KT 31/19 A2993 RMK A01 T03120185  RH  047%=      5-min Rain = 0
KAHS 191553Z 20016KT 31/19 A2993 RMK A01 T03110185  RH  047%=      5-min Rain = 0
KAHS 191554Z 20016KT 31/19 A2993 RMK A01 T03100185  RH  047%=      5-min Rain = 0
KAHS 191555Z 19013KT 31/19 A2993 RMK A01 T03100186  RH  048%=      5-min Rain = 0
KAHS 191556Z 19013G18KT 31/19 A2993 RMK A01 T03130186  RH  047%=      5-min Rain = 0
KAHS 191557Z 19015G20KT 31/19 A2993 RMK A01 T03130186  RH  047%=      5-min Rain = 0
KAHS 191558Z 19015KT 31/19 A2993 RMK A01 T03130186  RH  047%=      5-min Rain = 0
KAHS 191559Z 19013KT 31/19 A2993 RMK A01 T03130186  RH  047%=      5-min Rain = 0
KAHS 191600Z 21013G18KT 31/19 A2993 RMK A01 T03140187  RH  047%=      5-min Rain = 0
KAHS 191601Z 20017KT 32/19 A2993 RMK A01 T03150186  RH  046%=      5-min Rain = 0
KAHS 191602Z 19014KT 32/19 A2993 RMK A01 T03150187  RH  046%=      5-min Rain = 0
KAHS 191603Z 19013KT 31/19 A2993 RMK A01 T03140186  RH  046%=      5-min Rain = 0
KAHS 191604Z 21010G15KT 32/19 A2993 RMK A01 T03150188  RH  047%=      5-min Rain = 0
KAHS 191605Z 18011KT 32/19 A2993 RMK A01 T03200190  RH  046%=      5-min Rain = 0
KAHS 191606Z 19015KT 32/19 A2993 RMK A01 T03180188  RH  046%=      5-min Rain = 0
KAHS 191607Z 20013KT 32/19 A2993 RMK A01 T03160189  RH  047%=      5-min Rain = 0
KAHS 191608Z 18012G17KT 32/19 A2993 RMK A01 T03170190  RH  047%=      5-min Rain = 0
KAHS 191609Z 18015KT 32/19 A2993 RMK A01 T03180188  RH  046%=      5-min Rain = 0
KAHS 191610Z 20012KT 32/19 A2993 RMK A01 T03170188  RH  046%=      5-min Rain = 0
KAHS 191611Z 19013G18KT 32/19 A2993 RMK A01 T03190189  RH  046%=      5-min Rain = 0
KAHS 191612Z 19011KT 32/19 A2993 RMK A01 T03190189  RH  046%=      5-min Rain = 0
KAHS 191613Z 19011KT 32/19 A2993 RMK A01 T03220191  RH  046%=      5-min Rain = 0
KAHS 191614Z 19012KT 32/19 A2993 RMK A01 T03230189  RH  045%=      5-min Rain = 0
KAHS 191615Z 20015G21KT 32/19 A2993 RMK A01 T03210186  RH  045%=      5-min Rain = 0
KAHS 191616Z 19016KT 32/19 A2993 RMK A01 T03190186  RH  045%=      5-min Rain = 0
KAHS 191617Z 18011KT 32/19 A2993 RMK A01 T03200189  RH  046%=      5-min Rain = 0
KAHS 191618Z 19014G19KT 32/19 A2993 RMK A01 T03230188  RH  045%=      5-min Rain = 0
KAHS 191619Z 19012KT 32/19 A2993 RMK A01 T03200187  RH  045%=      5-min Rain = 0
KAHS 191620Z 19011G19KT 32/19 A2993 RMK A01 T03220189  RH  045%=      5-min Rain = 0
KAHS 191621Z 18014KT 32/19 A2993 RMK A01 T03210187  RH  045%=      5-min Rain = 0
KAHS 191622Z 18013G19KT 32/19 A2993 RMK A01 T03200186  RH  045%=      5-min Rain = 0
KAHS 191623Z 20014KT 32/19 A2993 RMK A01 T03200186  RH  045%=      5-min Rain = 0
KAHS 191624Z 19013G18KT 32/19 A2993 RMK A01 T03210186  RH  045%=      5-min Rain = 0
KAHS 191625Z 19013KT 32/19 A2993 RMK A01 T03210186  RH  045%=      5-min Rain = 0
KAHS 191626Z 18011KT 32/19 A2993 RMK A01 T03220187  RH  045%=      5-min Rain = 0
KAHS 191627Z 18009KT 33/19 A2993 RMK A01 T03250189  RH  045%=      5-min Rain = 0
KAHS 191628Z 19010KT 33/19 A2993 RMK A01 T03280190  RH  044%=      5-min Rain = 0
KAHS 191629Z 19010KT 33/19 A2993 RMK A01 T03280189  RH  044%=      5-min Rain = 0
KAHS 191630Z 19011KT 33/19 A2993 RMK A01 T03270187  RH  044%=      5-min Rain = 0
KAHS 191631Z 20011KT 33/19 A2993 RMK A01 T03250188  RH  044%=      5-min Rain = 0
KAHS 191632Z 19010KT 33/19 A2993 RMK A01 T03260188  RH  044%=      5-min Rain = 0
KAHS 191633Z 19015KT 33/19 A2993 RMK A01 T03270189  RH  044%=      5-min Rain = 0
KAHS 191634Z 19015G20KT 33/19 A2993 RMK A01 T03260186  RH  044%=      5-min Rain = 0
KAHS 191635Z 17014KT 33/19 A2993 RMK A01 T03250186  RH  044%=      5-min Rain = 0
KAHS 191636Z 19013KT 33/19 A2993 RMK A01 T03250187  RH  044%=      5-min Rain = 0
KAHS 191637Z 19011KT 33/19 A2993 RMK A01 T03270188  RH  044%=      5-min Rain = 0
KAHS 191638Z 19013KT 33/19 A2993 RMK A01 T03280186  RH  043%=      5-min Rain = 0
KAHS 191639Z 20011G17KT 33/18 A2993 RMK A01 T03250184  RH  043%=      5-min Rain = 0
KAHS 191640Z 19013KT 33/19 A2993 RMK A01 T03250185  RH  043%=      5-min Rain = 0
KAHS 191641Z 20012G17KT 33/19 A2993 RMK A01 T03280188  RH  043%=      5-min Rain = 0
KAHS 191642Z 19012KT 33/19 A2993 RMK A01 T03280187  RH  043%=      5-min Rain = 0
KAHS 191643Z 19010KT 33/19 A2993 RMK A01 T03290186  RH  043%=      5-min Rain = 0
KAHS 191644Z 18012G17KT 33/19 A2993 RMK A01 T03290185  RH  043%=      5-min Rain = 0
KAHS 191645Z 21013KT 33/19 A2993 RMK A01 T03290185  RH  043%=      5-min Rain = 0
KAHS 191646Z 20013G18KT 33/18 A2993 RMK A01 T03290183  RH  042%=      5-min Rain = 0
KAHS 191647Z 21012KT 33/18 A2993 RMK A01 T03270183  RH  042%=      5-min Rain = 0
KAHS 191648Z 20011KT 33/18 A2993 RMK A01 T03270184  RH  043%=      5-min Rain = 0
KAHS 191649Z 19011KT 33/19 A2993 RMK A01 T03280185  RH  043%=      5-min Rain = 0
KAHS 191650Z 19010KT 33/19 A2993 RMK A01 T03290185  RH  043%=      5-min Rain = 0
KAHS 191651Z 19010KT 33/19 A2993 RMK A01 T03310186  RH  042%=      5-min Rain = 0
KAHS 191652Z 20010KT 33/19 A2993 RMK A01 T03340188  RH  042%=      5-min Rain = 0
KAHS 191653Z 21010KT 33/19 A2993 RMK A01 T03340185  RH  041%=      5-min Rain = 0
KAHS 191654Z 20011KT 33/18 A2993 RMK A01 T03340184  RH  041%=      5-min Rain = 0
KAHS 191655Z 19012KT 33/18 A2993 RMK A01 T03310184  RH  042%=      5-min Rain = 0
KAHS 191656Z 21011KT 33/19 A2993 RMK A01 T03320186  RH  042%=      5-min Rain = 0
KAHS 191657Z 21014KT 33/18 A2993 RMK A01 T03340184  RH  041%=      5-min Rain = 0
KAHS 191658Z 21012G17KT 33/18 A2993 RMK A01 T03310183  RH  041%=      5-min Rain = 0
KAHS 191659Z 18011KT 33/19 A2993 RMK A01 T03310186  RH  042%=      5-min Rain = 0
KAHS 191700Z 17012KT 33/19 A2993 RMK A01 T03330186  RH  042%=      5-min Rain = 0
KAHS 191701Z 18013KT 33/18 A2993 RMK A01 T03340184  RH  041%=      5-min Rain = 0
KAHS 191702Z 19011KT 33/18 A2993 RMK A01 T03340184  RH  041%=      5-min Rain = 0
KAHS 191703Z 18011KT 33/19 A2993 RMK A01 T03340186  RH  042%=      5-min Rain = 0
KAHS 191704Z 17015KT 34/18 A2992 RMK A01 T03350184  RH  041%=      5-min Rain = 0
KAHS 191705Z 19011KT 34/18 A2992 RMK A01 T03350183  RH  041%=      5-min Rain = 0
KAHS 191706Z 19010G15KT 34/19 A2992 RMK A01 T03360185  RH  041%=      5-min Rain = 0
KAHS 191707Z 20011KT 34/18 A2992 RMK A01 T03380183  RH  040%=      5-min Rain = 0
KAHS 191708Z 18012KT 34/19 A2992 RMK A01 T03410185  RH  040%=      5-min Rain = 0
KAHS 191709Z 18012KT 34/18 A2992 RMK A01 T03370184  RH  041%=      5-min Rain = 0
KAHS 191710Z 18011G16KT 34/19 A2992 RMK A01 T03380188  RH  041%=      5-min Rain = 0
KAHS 191711Z 18013KT 34/19 A2992 RMK A01 T03380185  RH  040%=      5-min Rain = 0
KAHS 191712Z 17013KT 34/19 A2992 RMK A01 T03380186  RH  041%=      5-min Rain = 0
KAHS 191713Z 18013KT 34/19 A2992 RMK A01 T03400185  RH  040%=      5-min Rain = 0
KAHS 191714Z 20012G17KT 34/18 A2992 RMK A01 T03400182  RH  039%=      5-min Rain = 0
KAHS 191715Z 20013KT 34/18 A2992 RMK A01 T03420181  RH  039%=      5-min Rain = 0
KAHS 191716Z 19013KT 34/18 A2992 RMK A01 T03430181  RH  038%=      5-min Rain = 0
KAHS 191717Z 19014KT 34/18 A2992 RMK A01 T03420180  RH  038%=      5-min Rain = 0
KAHS 191718Z 18015KT 34/18 A2992 RMK A01 T03410179  RH  038%=      5-min Rain = 0
KAHS 191719Z 19015KT 34/18 A2992 RMK A01 T03400180  RH  039%=      5-min Rain = 0
KAHS 191720Z 19013KT 34/18 A2992 RMK A01 T03380179  RH  039%=      5-min Rain = 0
KAHS 191721Z 19012KT 34/18 A2992 RMK A01 T03390181  RH  039%=      5-min Rain = 0
KAHS 191722Z 20012KT 34/18 A2992 RMK A01 T03390181  RH  039%=      5-min Rain = 0
KAHS 191723Z 20013KT 34/18 A2992 RMK A01 T03400181  RH  039%=      5-min Rain = 0
KAHS 191724Z 20009KT 34/18 A2992 RMK A01 T03420184  RH  039%=      5-min Rain = 0
KAHS 191725Z 20011KT 34/18 A2992 RMK A01 T03430182  RH  039%=      5-min Rain = 0
KAHS 191726Z 19011KT 35/19 A2992 RMK A01 T03460185  RH  039%=      5-min Rain = 0
KAHS 191727Z 17013G18KT 35/19 A2992 RMK A01 T03470185  RH  038%=      5-min Rain = 0
KAHS 191728Z 18013KT 35/19 A2992 RMK A01 T03450186  RH  039%=      5-min Rain = 0
KAHS 191729Z 17015KT 35/19 A2992 RMK A01 T03460185  RH  039%=      5-min Rain = 0
KAHS 191730Z 19014KT 35/19 A2992 RMK A01 T03450185  RH  039%=      5-min Rain = 0
KAHS 191731Z 19013G18KT 35/18 A2992 RMK A01 T03460184  RH  038%=      5-min Rain = 0
KAHS 191732Z 20013KT 35/18 A2992 RMK A01 T03470183  RH  038%=      5-min Rain = 0
KAHS 191733Z 20011KT 35/18 A2992 RMK A01 T03480181  RH  037%=      5-min Rain = 0
KAHS 191734Z 21013KT 35/18 A2992 RMK A01 T03480179  RH  037%=      5-min Rain = 0
KAHS 191735Z 21013KT 35/18 A2992 RMK A01 T03460178  RH  037%=      5-min Rain = 0
KAHS 191736Z 19012G17KT 34/18 A2992 RMK A01 T03440181  RH  038%=      5-min Rain = 0
KAHS 191737Z 18015G20KT 35/18 A2992 RMK A01 T03450180  RH  038%=      5-min Rain = 0
KAHS 191738Z 18014KT 34/18 A2992 RMK A01 T03420179  RH  038%=      5-min Rain = 0
KAHS 191739Z 19016G21KT 34/18 A2992 RMK A01 T03440182  RH  038%=      5-min Rain = 0
KAHS 191740Z 19015KT 34/18 A2992 RMK A01 T03440180  RH  038%=      5-min Rain = 0
KAHS 191741Z 19013KT 35/18 A2992 RMK A01 T03450180  RH  038%=      5-min Rain = 0
KAHS 191742Z 20014KT 35/18 A2992 RMK A01 T03450181  RH  038%=      5-min Rain = 0
KAHS 191743Z 20015KT 35/18 A2992 RMK A01 T03460180  RH  037%=      5-min Rain = 0
KAHS 191744Z 20013KT 35/18 A2992 RMK A01 T03470180  RH  037%=      5-min Rain = 0
KAHS 191745Z 19013KT 35/18 A2992 RMK A01 T03500181  RH  037%=      5-min Rain = 0
KAHS 191746Z 20011KT 35/18 A2992 RMK A01 T03490179  RH  037%=      5-min Rain = 0
KAHS 191747Z 19013KT 35/18 A2992 RMK A01 T03480181  RH  037%=      5-min Rain = 0
KAHS 191748Z 19012KT 35/18 A2992 RMK A01 T03490182  RH  037%=      5-min Rain = 0
KAHS 191749Z 18015KT 35/18 A2992 RMK A01 T03500182  RH  037%=      5-min Rain = 0
KAHS 191750Z 19011KT 35/18 A2992 RMK A01 T03510183  RH  037%=      5-min Rain = 0
KAHS 191751Z 18012KT 35/18 A2992 RMK A01 T03500182  RH  037%=      5-min Rain = 0
KAHS 191752Z 18017KT 35/18 A2991 RMK A01 T03510182  RH  037%=      5-min Rain = 0
KAHS 191753Z 18016KT 35/18 A2991 RMK A01 T03490180  RH  037%=      5-min Rain = 0
KAHS 191754Z 18015KT 35/18 A2991 RMK A01 T03500181  RH  037%=      5-min Rain = 0
KAHS 191755Z 19016KT 35/18 A2991 RMK A01 T03510180  RH  036%=      5-min Rain = 0
KAHS 191756Z 21013KT 35/18 A2992 RMK A01 T03530180  RH  036%=      5-min Rain = 0
KAHS 191757Z 20012G18KT 36/18 A2992 RMK A01 T03560181  RH  036%=      5-min Rain = 0
KAHS 191758Z 19014KT 36/18 A2992 RMK A01 T03590180  RH  035%=      5-min Rain = 0
KAHS 191759Z 19012KT 36/18 A2992 RMK A01 T03560179  RH  035%=      5-min Rain = 0
KAHS 191800Z 18015G20KT 36/18 A2992 RMK A01 T03560182  RH  036%=      5-min Rain = 0
KAHS 191801Z 19012KT 36/18 A2992 RMK A01 T03580181  RH  035%=      5-min Rain = 0
KAHS 191802Z 18013KT 36/18 A2992 RMK A01 T03580181  RH  035%=      5-min Rain = 0
KAHS 191803Z 18015KT 36/18 A2991 RMK A01 T03560179  RH  035%=      5-min Rain = 0
KAHS 191804Z 18015KT 35/18 A2991 RMK A01 T03540179  RH  036%=      5-min Rain = 0
KAHS 191805Z 18017KT 35/18 A2991 RMK A01 T03530180  RH  036%=      5-min Rain = 0
KAHS 191806Z 18014KT 35/18 A2991 RMK A01 T03540182  RH  036%=      5-min Rain = 0
KAHS 191807Z 18013KT 35/18 A2991 RMK A01 T03540180  RH  036%=      5-min Rain = 0
KAHS 191808Z 18012KT 35/18 A2991 RMK A01 T03530180  RH  036%=      5-min Rain = 0
KAHS 191809Z 19011KT 35/18 A2991 RMK A01 T03540181  RH  036%=      5-min Rain = 0
KAHS 191810Z 19014G20KT 36/18 A2991 RMK A01 T03570181  RH  036%=      5-min Rain = 0
KAHS 191811Z 20015KT 36/18 A2991 RMK A01 T03570177  RH  035%=      5-min Rain = 0
KAHS 191812Z 20016KT 36/18 A2991 RMK A01 T03560176  RH  035%=      5-min Rain = 0
KAHS 191813Z 20015KT 35/18 A2991 RMK A01 T03530178  RH  036%=      5-min Rain = 0
KAHS 191814Z 18014KT 35/18 A2991 RMK A01 T03540180  RH  036%=      5-min Rain = 0
KAHS 191815Z 17016G21KT 36/18 A2991 RMK A01 T03560179  RH  035%=      5-min Rain = 0
KAHS 191816Z 19012KT 36/18 A2991 RMK A01 T03570180  RH  035%=      5-min Rain = 0
KAHS 191817Z 19015KT 36/18 A2991 RMK A01 T03600181  RH  035%=      5-min Rain = 0
KAHS 191818Z 19013KT 36/18 A2991 RMK A01 T03590179  RH  035%=      5-min Rain = 0
KAHS 191819Z 18012KT 36/18 A2991 RMK A01 T03600181  RH  035%=      5-min Rain = 0
KAHS 191820Z 17013KT 36/18 A2991 RMK A01 T03610180  RH  034%=      5-min Rain = 0
KAHS 191821Z 18013G18KT 36/18 A2991 RMK A01 T03620181  RH  034%=      5-min Rain = 0
KAHS 191822Z 19015G20KT 36/18 A2991 RMK A01 T03610178  RH  034%=      5-min Rain = 0
KAHS 191823Z 20013G18KT 36/18 A2991 RMK A01 T03570175  RH  034%=      5-min Rain = 0
KAHS 191824Z 20011KT 36/18 A2991 RMK A01 T03590176  RH  034%=      5-min Rain = 0
KAHS 191825Z 19011KT 36/18 A2991 RMK A01 T03630177  RH  034%=      5-min Rain = 0
KAHS 191826Z 18011KT 36/18 A2991 RMK A01 T03640181  RH  034%=      5-min Rain = 0
KAHS 191827Z 21010KT 36/18 A2991 RMK A01 T03640182  RH  034%=      5-min Rain = 0
KAHS 191828Z 20012KT 37/18 A2991 RMK A01 T03680179  RH  033%=      5-min Rain = 0
KAHS 191829Z 21011KT 37/17 A2991 RMK A01 T03680174  RH  032%=      5-min Rain = 0
KAHS 191830Z 21009KT 36/17 A2991 RMK A01 T03640173  RH  032%=      5-min Rain = 0
KAHS 191831Z 20010KT 37/18 A2991 RMK A01 T03660176  RH  033%=      5-min Rain = 0
KAHS 191832Z 18013KT 36/18 A2991 RMK A01 T03640179  RH  034%=      5-min Rain = 0
KAHS 191833Z 18011KT 36/18 A2991 RMK A01 T03630181  RH  034%=      5-min Rain = 0
KAHS 191834Z 20013KT 36/18 A2991 RMK A01 T03620181  RH  035%=      5-min Rain = 0
KAHS 191835Z 20012KT 36/18 A2991 RMK A01 T03600176  RH  034%=      5-min Rain = 0
KAHS 191836Z 18011KT 36/18 A2991 RMK A01 T03630180  RH  034%=      5-min Rain = 0
KAHS 191837Z 18013KT 37/18 A2991 RMK A01 T03650182  RH  034%=      5-min Rain = 0
KAHS 191838Z 18013KT 37/18 A2991 RMK A01 T03650181  RH  034%=      5-min Rain = 0
KAHS 191839Z 18010KT 36/18 A2991 RMK A01 T03630181  RH  035%=      5-min Rain = 0
KAHS 191840Z 18010KT 37/19 A2991 RMK A01 T03660185  RH  035%=      5-min Rain = 0
KAHS 191841Z 18015G20KT 37/18 A2991 RMK A01 T03690183  RH  034%=      5-min Rain = 0
KAHS 191842Z 17015KT 37/18 A2991 RMK A01 T03670181  RH  034%=      5-min Rain = 0
KAHS 191843Z 18019KT 37/18 A2991 RMK A01 T03670178  RH  033%=      5-min Rain = 0
KAHS 191844Z 19016KT 37/18 A2991 RMK A01 T03660178  RH  033%=      5-min Rain = 0
KAHS 191845Z 19017KT 36/18 A2991 RMK A01 T03640175  RH  033%=      5-min Rain = 0
KAHS 191846Z 20013KT 36/18 A2991 RMK A01 T03640175  RH  033%=      5-min Rain = 0
KAHS 191847Z 19013KT 37/17 A2991 RMK A01 T03650173  RH  032%=      5-min Rain = 0
KAHS 191848Z 20013KT 36/17 A2991 RMK A01 T03640174  RH  033%=      5-min Rain = 0
KAHS 191849Z 20009KT 36/17 A2991 RMK A01 T03630173  RH  032%=      5-min Rain = 0
KAHS 191850Z 19009KT 36/18 A299 RMK A01 T03620175  RH  033%=      5-min Rain = 0
KAHS 191851Z 18011KT 37/18 A299 RMK A01 T03650178  RH  033%=      5-min Rain = 0
KAHS 191852Z 20013KT 37/18 A299 RMK A01 T03700179  RH  033%=      5-min Rain = 0
KAHS 191853Z 19011KT 37/18 A299 RMK A01 T03740180  RH  032%=      5-min Rain = 0
KAHS 191854Z 21013KT 38/18 A299 RMK A01 T03770178  RH  031%=      5-min Rain = 0
KAHS 191855Z 20012KT 37/17 A299 RMK A01 T03720173  RH  031%=      5-min Rain = 0
KAHS 191856Z 21010KT 37/17 A299 RMK A01 T03700173  RH  031%=      5-min Rain = 0
KAHS 191857Z 20009KT 37/18 A299 RMK A01 T03670175  RH  032%=      5-min Rain = 0
KAHS 191858Z 19012G19KT 37/18 A299 RMK A01 T03710178  RH  032%=      5-min Rain = 0
KAHS 191859Z 19013KT 37/18 A299 RMK A01 T03700179  RH  033%=      5-min Rain = 0
KAHS 191900Z 20010KT 37/18 A299 RMK A01 T03710180  RH  033%=      5-min Rain = 0
KAHS 191901Z 19011KT 37/18 A299 RMK A01 T03720180  RH  032%=      5-min Rain = 0
KAHS 191902Z 17012KT 37/18 A299 RMK A01 T03730180  RH  032%=      5-min Rain = 0
KAHS 191903Z 18016KT 37/18 A299 RMK A01 T03710177  RH  032%=      5-min Rain = 0
KAHS 191904Z 18015KT 37/18 A299 RMK A01 T03690177  RH  033%=      5-min Rain = 0
KAHS 191905Z 18013KT 37/18 A299 RMK A01 T03680176  RH  032%=      5-min Rain = 0
KAHS 191906Z 17014G19KT 37/18 A299 RMK A01 T03700178  RH  032%=      5-min Rain = 0
KAHS 191907Z 18014KT 37/18 A299 RMK A01 T03700176  RH  032%=      5-min Rain = 0
KAHS 191908Z 19014KT 37/18 A299 RMK A01 T03690178  RH  033%=      5-min Rain = 0
KAHS 191909Z 18012KT 37/18 A299 RMK A01 T03690179  RH  033%=      5-min Rain = 0
KAHS 191910Z 17013G18KT 37/18 A299 RMK A01 T03700179  RH  033%=      5-min Rain = 0
KAHS 191911Z 16016KT 37/18 A299 RMK A01 T03720176  RH  032%=      5-min Rain = 0
KAHS 191912Z 17014KT 37/17 A299 RMK A01 T03720174  RH  031%=      5-min Rain = 0
KAHS 191913Z 17014KT 37/18 A299 RMK A01 T03710175  RH  032%=      5-min Rain = 0
KAHS 191914Z 20012KT 37/18 A299 RMK A01 T03710179  RH  032%=      5-min Rain = 0
KAHS 191915Z 22013KT 38/18 A299 RMK A01 T03750178  RH  032%=      5-min Rain = 0
KAHS 191916Z 21014G19KT 38/18 A299 RMK A01 T03760176  RH  031%=      5-min Rain = 0
KAHS 191917Z 21012G17KT 38/17 A299 RMK A01 T03750170  RH  030%=      5-min Rain = 0
KAHS 191918Z 20010KT 37/17 A299 RMK A01 T03720174  RH  031%=      5-min Rain = 0
KAHS 191919Z 19009KT 37/18 A299 RMK A01 T03730177  RH  032%=      5-min Rain = 0
KAHS 191920Z 18011KT 38/18 A299 RMK A01 T03780180  RH  031%=      5-min Rain = 0
KAHS 191921Z 18012KT 38/18 A299 RMK A01 T03800178  RH  031%=      5-min Rain = 0
KAHS 191922Z 19011KT 38/18 A2989 RMK A01 T03810178  RH  031%=      5-min Rain = 0
KAHS 191923Z 19007KT 38/18 A299 RMK A01 T03780177  RH  031%=      5-min Rain = 0
KAHS 191924Z 20009KT 38/18 A299 RMK A01 T03810177  RH  030%=      5-min Rain = 0
KAHS 191925Z 20013G19KT 38/17 A2989 RMK A01 T03810174  RH  030%=      5-min Rain = 0
KAHS 191926Z 20010KT 38/18 A2989 RMK A01 T03770175  RH  031%=      5-min Rain = 0
KAHS 191927Z 17012G17KT 38/18 A2989 RMK A01 T03770177  RH  031%=      5-min Rain = 0
KAHS 191928Z 17010KT 38/18 A2989 RMK A01 T03800178  RH  031%=      5-min Rain = 0
KAHS 191929Z 16011KT 38/18 A2989 RMK A01 T03830177  RH  030%=      5-min Rain = 0
KAHS 191930Z 17012KT 38/17 A2989 RMK A01 T03810174  RH  030%=      5-min Rain = 0
KAHS 191931Z 18014KT 38/18 A2989 RMK A01 T03760176  RH  031%=      5-min Rain = 0
KAHS 191932Z 18013KT 38/18 A2989 RMK A01 T03770176  RH  031%=      5-min Rain = 0
KAHS 191933Z 17015KT 38/17 A2989 RMK A01 T03790174  RH  030%=      5-min Rain = 0
KAHS 191934Z 18011KT 38/18 A2989 RMK A01 T03770176  RH  031%=      5-min Rain = 0
KAHS 191935Z 19011KT 38/18 A2989 RMK A01 T03800175  RH  030%=      5-min Rain = 0
KAHS 191936Z 19010KT 38/17 A2989 RMK A01 T03790174  RH  030%=      5-min Rain = 0
KAHS 191937Z 19013G18KT 38/18 A2989 RMK A01 T03800176  RH  030%=      5-min Rain = 0
KAHS 191938Z 18012KT 38/18 A2989 RMK A01 T03820177  RH  030%=      5-min Rain = 0
KAHS 191939Z 18014KT 38/18 A2989 RMK A01 T03840175  RH  030%=      5-min Rain = 0
KAHS 191940Z 18011KT 38/17 A2989 RMK A01 T03820173  RH  029%=      5-min Rain = 0
KAHS 191941Z 17012G17KT 38/18 A2989 RMK A01 T03790176  RH  030%=      5-min Rain = 0
KAHS 191942Z 17013KT 38/18 A2989 RMK A01 T03800175  RH  030%=      5-min Rain = 0
KAHS 191943Z 18013KT 38/18 A2989 RMK A01 T03780176  RH  031%=      5-min Rain = 0
KAHS 191944Z 17014G19KT 38/17 A2989 RMK A01 T03770173  RH  030%=      5-min Rain = 0
KAHS 191945Z 17013KT 38/17 A2989 RMK A01 T03790172  RH  030%=      5-min Rain = 0
KAHS 191946Z 17011KT 38/17 A2989 RMK A01 T03780170  RH  030%=      5-min Rain = 0
KAHS 191947Z 18010KT 38/17 A2989 RMK A01 T03770172  RH  030%=      5-min Rain = 0
KAHS 191948Z 17009KT 38/17 A2989 RMK A01 T03780173  RH  030%=      5-min Rain = 0
KAHS 191949Z 17014KT 38/17 A2989 RMK A01 T03800173  RH  030%=      5-min Rain = 0
KAHS 191950Z 18011KT 38/17 A2989 RMK A01 T03800173  RH  030%=      5-min Rain = 0
KAHS 191951Z 18010KT 38/17 A2989 RMK A01 T03810170  RH  029%=      5-min Rain = 0
KAHS 191952Z 18011KT 38/17 A2989 RMK A01 T03810171  RH  029%=      5-min Rain = 0
KAHS 191953Z 18008KT 38/17 A2989 RMK A01 T03820173  RH  030%=      5-min Rain = 0
KAHS 191954Z 18011G16KT 39/17 A2989 RMK A01 T03850173  RH  029%=      5-min Rain = 0
KAHS 191955Z 18014KT 38/17 A2989 RMK A01 T03840170  RH  029%=      5-min Rain = 0
KAHS 191956Z 17012KT 38/17 A2989 RMK A01 T03790169  RH  029%=      5-min Rain = 0
KAHS 191957Z 18005KT 38/17 A2989 RMK A01 T03800170  RH  029%=      5-min Rain = 0
KAHS 191958Z 20008KT 38/17 A2989 RMK A01 T03830169  RH  029%=      5-min Rain = 0
KAHS 191959Z 19009KT 38/17 A2989 RMK A01 T03800168  RH  029%=      5-min Rain = 0
KAHS 192000Z 18009KT 38/17 A2989 RMK A01 T03780171  RH  030%=      5-min Rain = 0
KAHS 192001Z 15011KT 38/17 A2989 RMK A01 T03810171  RH  029%=      5-min Rain = 0
KAHS 192002Z 16012KT 38/17 A2988 RMK A01 T03830173  RH  029%=      5-min Rain = 0
KAHS 192003Z 16014G19KT 38/17 A2988 RMK A01 T03830171  RH  029%=      5-min Rain = 0
KAHS 192004Z 18011KT 38/17 A2988 RMK A01 T03820173  RH  029%=      5-min Rain = 0
KAHS 192005Z 19014KT 38/17 A2989 RMK A01 T03830173  RH  029%=      5-min Rain = 0
KAHS 192006Z 20010KT 38/17 A2988 RMK A01 T03820172  RH  029%=      5-min Rain = 0
KAHS 192007Z 20010KT 38/17 A2988 RMK A01 T03820173  RH  029%=      5-min Rain = 0
KAHS 192008Z 17010KT 38/18 A2988 RMK A01 T03840176  RH  030%=      5-min Rain = 0
KAHS 192009Z 16011KT 39/17 A2988 RMK A01 T03870172  RH  028%=      5-min Rain = 0
KAHS 192010Z 17012G17KT 39/17 A2988 RMK A01 T03860172  RH  029%=      5-min Rain = 0
KAHS 192011Z 17013G18KT 39/17 A2988 RMK A01 T03860171  RH  028%=      5-min Rain = 0
KAHS 192012Z 19011G18KT 39/17 A2988 RMK A01 T03860167  RH  028%=      5-min Rain = 0
KAHS 192013Z 19011KT 39/17 A2988 RMK A01 T03890167  RH  027%=      5-min Rain = 0
KAHS 192014Z 19010KT 39/16 A2988 RMK A01 T03870164  RH  027%=      5-min Rain = 0
KAHS 192015Z 18011KT 38/17 A2988 RMK A01 T03840169  RH  028%=      5-min Rain = 0
KAHS 192016Z 17013KT 39/17 A2988 RMK A01 T03860172  RH  029%=      5-min Rain = 0
KAHS 192017Z 18011KT 39/17 A2988 RMK A01 T03870171  RH  028%=      5-min Rain = 0
KAHS 192018Z 18012KT 39/17 A2988 RMK A01 T03900165  RH  027%=      5-min Rain = 0
KAHS 192019Z 20012KT 39/16 A2988 RMK A01 T03920161  RH  026%=      5-min Rain = 0
KAHS 192020Z 19010KT 39/16 A2988 RMK A01 T03890162  RH  026%=      5-min Rain = 0
KAHS 192021Z 19013KT 39/16 A2988 RMK A01 T03890164  RH  027%=      5-min Rain = 0
KAHS 192022Z 19014KT 39/16 A2988 RMK A01 T03910164  RH  026%=      5-min Rain = 0
KAHS 192023Z 18012KT 39/17 A2988 RMK A01 T03880167  RH  028%=      5-min Rain = 0
KAHS 192024Z 17009KT 39/17 A2988 RMK A01 T03870167  RH  028%=      5-min Rain = 0
KAHS 192025Z 18008KT 39/17 A2988 RMK A01 T03870169  RH  028%=      5-min Rain = 0
KAHS 192026Z 18008KT 39/17 A2988 RMK A01 T03880168  RH  028%=      5-min Rain = 0
KAHS 192027Z 19009KT 39/17 A2988 RMK A01 T03880168  RH  028%=      5-min Rain = 0
KAHS 192028Z 18010KT 39/17 A2988 RMK A01 T03850167  RH  028%=      5-min Rain = 0
KAHS 192029Z 17011KT 38/17 A2987 RMK A01 T03840170  RH  029%=      5-min Rain = 0
KAHS 192030Z 18013KT 39/17 A2987 RMK A01 T03860167  RH  028%=      5-min Rain = 0
KAHS 192031Z 19013KT 39/17 A2987 RMK A01 T03900168  RH  027%=      5-min Rain = 0
KAHS 192032Z 19012KT 39/17 A2987 RMK A01 T03920165  RH  027%=      5-min Rain = 0
KAHS 192033Z 18009KT 39/16 A2987 RMK A01 T03880163  RH  027%=      5-min Rain = 0
KAHS 192034Z 19012KT 39/17 A2987 RMK A01 T03870165  RH  027%=      5-min Rain = 0
KAHS 192035Z 18009KT 39/16 A2987 RMK A01 T03850163  RH  027%=      5-min Rain = 0
KAHS 192036Z 17012KT 39/16 A2987 RMK A01 T03850164  RH  027%=      5-min Rain = 0
KAHS 192037Z 18014KT 39/17 A2987 RMK A01 T03880166  RH  027%=      5-min Rain = 0
KAHS 192038Z 18014KT 39/17 A2987 RMK A01 T03880167  RH  027%=      5-min Rain = 0
KAHS 192039Z 19014G19KT 39/16 A2987 RMK A01 T03870164  RH  027%=      5-min Rain = 0
KAHS 192040Z 19012KT 39/16 A2987 RMK A01 T03850164  RH  027%=      5-min Rain = 0
KAHS 192041Z 19011G17KT 39/17 A2987 RMK A01 T03860167  RH  028%=      5-min Rain = 0
KAHS 192042Z 19014KT 39/17 A2987 RMK A01 T03870165  RH  027%=      5-min Rain = 0
KAHS 192043Z 18011KT 38/16 A2987 RMK A01 T03830163  RH  028%=      5-min Rain = 0
KAHS 192044Z 18010G15KT 38/16 A2987 RMK A01 T03840162  RH  027%=      5-min Rain = 0
KAHS 192045Z 18013KT 39/16 A2987 RMK A01 T03860160  RH  027%=      5-min Rain = 0
KAHS 192046Z 19009KT 39/16 A2987 RMK A01 T03890161  RH  026%=      5-min Rain = 0
KAHS 192047Z 18010KT 39/16 A2987 RMK A01 T03930164  RH  026%=      5-min Rain = 0
KAHS 192048Z 17010KT 39/16 A2987 RMK A01 T03940164  RH  026%=      5-min Rain = 0
KAHS 192049Z 19011KT 40/17 A2987 RMK A01 T03950166  RH  026%=      5-min Rain = 0
KAHS 192050Z 19013KT 39/16 A2987 RMK A01 T03910161  RH  026%=      5-min Rain = 0
KAHS 192051Z 18017KT 39/16 A2987 RMK A01 T03870160  RH  026%=      5-min Rain = 0
KAHS 192052Z 17015G20KT 39/16 A2987 RMK A01 T03870160  RH  026%=      5-min Rain = 0
KAHS 192053Z 19014KT 39/16 A2987 RMK A01 T03880160  RH  026%=      5-min Rain = 0
KAHS 192054Z 17015KT 39/16 A2987 RMK A01 T03880161  RH  026%=      5-min Rain = 0
KAHS 192055Z 18014KT 39/16 A2987 RMK A01 T03880159  RH  026%=      5-min Rain = 0
KAHS 192056Z 20016KT 39/16 A2987 RMK A01 T03880155  RH  025%=      5-min Rain = 0
KAHS 192057Z 19015KT 39/15 A2987 RMK A01 T03860153  RH  025%=      5-min Rain = 0
KAHS 192058Z 20013KT 39/15 A2987 RMK A01 T03860153  RH  025%=      5-min Rain = 0
KAHS 192059Z 19012KT 39/16 A2987 RMK A01 T03880155  RH  025%=      5-min Rain = 0
KAHS 192100Z 19013KT 39/15 A2987 RMK A01 T03900152  RH  025%=      5-min Rain = 0
KAHS 192101Z 19011KT 39/15 A2987 RMK A01 T03900152  RH  025%=      5-min Rain = 0
KAHS 192102Z 19009KT 39/15 A2987 RMK A01 T03890152  RH  025%=      5-min Rain = 0
KAHS 192103Z 20009KT 39/15 A2987 RMK A01 T03920148  RH  024%=      5-min Rain = 0
KAHS 192104Z 19009KT 39/15 A2986 RMK A01 T03930146  RH  023%=      5-min Rain = 0
KAHS 192105Z 20010KT 40/15 A2986 RMK A01 T03960146  RH  023%=      5-min Rain = 0
KAHS 192106Z 19008KT 39/15 A2986 RMK A01 T03940150  RH  024%=      5-min Rain = 0
KAHS 192107Z 19007KT 39/15 A2986 RMK A01 T03910152  RH  025%=      5-min Rain = 0
KAHS 192108Z 20009KT 39/15 A2986 RMK A01 T03910153  RH  025%=      5-min Rain = 0
KAHS 192109Z 18012KT 39/15 A2986 RMK A01 T03900154  RH  025%=      5-min Rain = 0
KAHS 192110Z 20012G17KT 39/16 A2986 RMK A01 T03940156  RH  025%=      5-min Rain = 0
KAHS 192111Z 21011KT 39/15 A2986 RMK A01 T03940151  RH  024%=      5-min Rain = 0
KAHS 192112Z 21013KT 39/15 A2986 RMK A01 T03940148  RH  023%=      5-min Rain = 0
KAHS 192113Z 21013KT 39/15 A2986 RMK A01 T03940145  RH  023%=      5-min Rain = 0
KAHS 192114Z 21012KT 39/14 A2986 RMK A01 T03910143  RH  023%=      5-min Rain = 0
KAHS 192115Z 19010KT 39/14 A2986 RMK A01 T03880144  RH  024%=      5-min Rain = 0
KAHS 192116Z 18010KT 39/15 A2986 RMK A01 T03910150  RH  024%=      5-min Rain = 0
KAHS 192117Z 19012KT 39/15 A2986 RMK A01 T03920147  RH  024%=      5-min Rain = 0
KAHS 192118Z 20010KT 39/15 A2986 RMK A01 T03890146  RH  024%=      5-min Rain = 0
KAHS 192119Z 17009KT 39/15 A2986 RMK A01 T03880151  RH  025%=      5-min Rain = 0
KAHS 192120Z 18008KT 39/16 A2986 RMK A01 T03900156  RH  025%=      5-min Rain = 0
KAHS 192121Z 17012G17KT 39/16 A2986 RMK A01 T03920159  RH  026%=      5-min Rain = 0
KAHS 192122Z 17015KT 39/16 A2986 RMK A01 T03920157  RH  025%=      5-min Rain = 0
KAHS 192123Z 16015KT 39/16 A2986 RMK A01 T03890155  RH  025%=      5-min Rain = 0
KAHS 192124Z 17014KT 39/16 A2986 RMK A01 T03900155  RH  025%=      5-min Rain = 0
KAHS 192125Z 16014KT 39/15 A2986 RMK A01 T03910154  RH  025%=      5-min Rain = 0
KAHS 192126Z 16012KT 39/15 A2986 RMK A01 T03900151  RH  024%=      5-min Rain = 0
KAHS 192127Z 17010KT 39/15 A2986 RMK A01 T03890152  RH  025%=      5-min Rain = 0
KAHS 192128Z 17009KT 39/15 A2986 RMK A01 T03900154  RH  025%=      5-min Rain = 0
KAHS 192129Z 19010KT 39/15 A2986 RMK A01 T03900154  RH  025%=      5-min Rain = 0
KAHS 192130Z 18009KT 39/16 A2986 RMK A01 T03880155  RH  025%=      5-min Rain = 0
KAHS 192131Z 17008KT 39/16 A2986 RMK A01 T03890157  RH  026%=      5-min Rain = 0
KAHS 192132Z 17009KT 39/16 A2986 RMK A01 T03890156  RH  025%=      5-min Rain = 0
KAHS 192133Z 19010KT 39/15 A2986 RMK A01 T03910148  RH  024%=      5-min Rain = 0
KAHS 192134Z 18011KT 39/15 A2986 RMK A01 T03920147  RH  024%=      5-min Rain = 0
KAHS 192135Z 20013KT 39/15 A2986 RMK A01 T03930149  RH  024%=      5-min Rain = 0
KAHS 192136Z 18012KT 39/15 A2986 RMK A01 T03920149  RH  024%=      5-min Rain = 0
KAHS 192137Z 19015KT 39/15 A2986 RMK A01 T03910148  RH  024%=      5-min Rain = 0
KAHS 192138Z 18012KT 39/15 A2986 RMK A01 T03900148  RH  024%=      5-min Rain = 0
KAHS 192139Z 19009KT 39/15 A2986 RMK A01 T03900148  RH  024%=      5-min Rain = 0
KAHS 192140Z 18010KT 39/15 A2986 RMK A01 T03910151  RH  024%=      5-min Rain = 0
KAHS 192141Z 17012KT 39/16 A2986 RMK A01 T03930155  RH  025%=      5-min Rain = 0
KAHS 192142Z 19008KT 39/16 A2986 RMK A01 T03940155  RH  025%=      5-min Rain = 0
KAHS 192143Z 19008KT 40/16 A2986 RMK A01 T03970155  RH  024%=      5-min Rain = 0
KAHS 192144Z 19010G15KT 40/15 A2985 RMK A01 T03950151  RH  024%=      5-min Rain = 0
KAHS 192145Z 17011KT 40/15 A2985 RMK A01 T03950153  RH  024%=      5-min Rain = 0
KAHS 192146Z 18010KT 40/15 A2985 RMK A01 T03960154  RH  024%=      5-min Rain = 0
KAHS 192147Z 20011KT 40/15 A2985 RMK A01 T03970152  RH  024%=      5-min Rain = 0
KAHS 192148Z 18011KT 39/15 A2985 RMK A01 T03940149  RH  024%=      5-min Rain = 0
KAHS 192149Z 17011KT 40/15 A2985 RMK A01 T03950150  RH  024%=      5-min Rain = 0
KAHS 192150Z 18009KT 39/15 A2985 RMK A01 T03940149  RH  024%=      5-min Rain = 0
KAHS 192151Z 19012KT 40/15 A2985 RMK A01 T03960151  RH  024%=      5-min Rain = 0
KAHS 192152Z 19012KT 40/15 A2985 RMK A01 T03950146  RH  023%=      5-min Rain = 0
KAHS 192153Z 19012KT 39/15 A2985 RMK A01 T03930149  RH  024%=      5-min Rain = 0
KAHS 192154Z 18012KT 39/15 A2985 RMK A01 T03920150  RH  024%=      5-min Rain = 0
KAHS 192155Z 18012KT 39/15 A2985 RMK A01 T03910150  RH  024%=      5-min Rain = 0
KAHS 192156Z 20011KT 39/15 A2985 RMK A01 T03920149  RH  024%=      5-min Rain = 0
KAHS 192157Z 20008KT 39/15 A2985 RMK A01 T03900148  RH  024%=      5-min Rain = 0
KAHS 192158Z 17007KT 39/15 A2985 RMK A01 T03890150  RH  024%=      5-min Rain = 0
KAHS 192159Z 18010G15KT 39/15 A2985 RMK A01 T03930152  RH  024%=      5-min Rain = 0
KAHS 192200Z 17009KT 39/15 A2985 RMK A01 T03920149  RH  024%=      5-min Rain = 0
KAHS 192201Z 18007KT 39/15 A2985 RMK A01 T03910150  RH  024%=      5-min Rain = 0
KAHS 192202Z 21007G13KT 39/15 A2985 RMK A01 T03940153  RH  024%=      5-min Rain = 0
KAHS 192203Z 21010KT 40/15 A2985 RMK A01 T03960149  RH  023%=      5-min Rain = 0
KAHS 192204Z 22010KT 40/15 A2985 RMK A01 T03950148  RH  024%=      5-min Rain = 0
KAHS 192205Z 20009KT 40/15 A2985 RMK A01 T03960146  RH  023%=      5-min Rain = 0
KAHS 192206Z 21007KT 39/15 A2985 RMK A01 T03940145  RH  023%=      5-min Rain = 0
KAHS 192207Z 21007KT 39/15 A2985 RMK A01 T03920147  RH  024%=      5-min Rain = 0
KAHS 192208Z 19007KT 39/15 A2985 RMK A01 T03930150  RH  024%=      5-min Rain = 0
KAHS 192209Z 20014G19KT 40/15 A2985 RMK A01 T03970150  RH  024%=      5-min Rain = 0
KAHS 192210Z 20013G19KT 40/15 A2985 RMK A01 T03950148  RH  023%=      5-min Rain = 0
KAHS 192211Z 19014KT 40/15 A2985 RMK A01 T03950148  RH  023%=      5-min Rain = 0
KAHS 192212Z 19010KT 39/15 A2985 RMK A01 T03920147  RH  024%=      5-min Rain = 0
KAHS 192213Z 18010KT 39/15 A2985 RMK A01 T03910147  RH  024%=      5-min Rain = 0
KAHS 192214Z 19010KT 39/15 A2985 RMK A01 T03920148  RH  024%=      5-min Rain = 0
KAHS 192215Z 20010G15KT 39/15 A2985 RMK A01 T03920147  RH  024%=      5-min Rain = 0
KAHS 192216Z 19009KT 39/15 A2985 RMK A01 T03920148  RH  024%=      5-min Rain = 0
KAHS 192217Z 18012KT 39/15 A2985 RMK A01 T03930148  RH  024%=      5-min Rain = 0
KAHS 192218Z 16008KT 39/15 A2985 RMK A01 T03920147  RH  024%=      5-min Rain = 0
KAHS 192219Z 17010KT 39/15 A2985 RMK A01 T03940148  RH  023%=      5-min Rain = 0
KAHS 192220Z 17010KT 40/15 A2985 RMK A01 T03950146  RH  023%=      5-min Rain = 0
KAHS 192221Z 19009KT 40/15 A2985 RMK A01 T03960147  RH  023%=      5-min Rain = 0
KAHS 192222Z 20011KT 40/15 A2984 RMK A01 T03960145  RH  023%=      5-min Rain = 0
KAHS 192223Z 17011KT 40/15 A2985 RMK A01 T03950146  RH  023%=      5-min Rain = 0
KAHS 192224Z 19011KT 40/15 A2984 RMK A01 T03980147  RH  023%=      5-min Rain = 0
KAHS 192225Z 20011KT 40/15 A2984 RMK A01 T03960146  RH  023%=      5-min Rain = 0
KAHS 192226Z 21009KT 40/15 A2984 RMK A01 T03950146  RH  023%=      5-min Rain = 0
KAHS 192227Z 20011KT 40/15 A2984 RMK A01 T03960146  RH  023%=      5-min Rain = 0
KAHS 192228Z 18011KT 40/15 A2984 RMK A01 T03970147  RH  023%=      5-min Rain = 0
KAHS 192229Z 17014G19KT 40/15 A2984 RMK A01 T03970146  RH  023%=      5-min Rain = 0
KAHS 192230Z 18016G21KT 40/15 A2984 RMK A01 T03960146  RH  023%=      5-min Rain = 0
KAHS 192231Z 18014KT 39/14 A2984 RMK A01 T03930144  RH  023%=      5-min Rain = 0
KAHS 192232Z 18012KT 39/15 A2984 RMK A01 T03910145  RH  024%=      5-min Rain = 0
KAHS 192233Z 19011KT 39/15 A2984 RMK A01 T03900146  RH  024%=      5-min Rain = 0
KAHS 192234Z 19013KT 39/15 A2984 RMK A01 T03900146  RH  024%=      5-min Rain = 0
KAHS 192235Z 19011KT 39/14 A2984 RMK A01 T03890143  RH  023%=      5-min Rain = 0
KAHS 192236Z 18012KT 39/15 A2984 RMK A01 T03890145  RH  024%=      5-min Rain = 0
KAHS 192237Z 18010KT 39/14 A2984 RMK A01 T03880143  RH  023%=      5-min Rain = 0
KAHS 192238Z 19011KT 38/14 A2984 RMK A01 T03840143  RH  024%=      5-min Rain = 0
KAHS 192239Z 18012KT 38/14 A2984 RMK A01 T03810142  RH  024%=      5-min Rain = 0
KAHS 192240Z 19011KT 38/14 A2984 RMK A01 T03820143  RH  024%=      5-min Rain = 0
KAHS 192241Z 20012KT 39/14 A2984 RMK A01 T03850143  RH  024%=      5-min Rain = 0
KAHS 192242Z 19010KT 39/14 A2984 RMK A01 T03870143  RH  024%=      5-min Rain = 0
KAHS 192243Z 19011KT 39/14 A2984 RMK A01 T03860143  RH  024%=      5-min Rain = 0
KAHS 192244Z 19012KT 39/14 A2984 RMK A01 T03860143  RH  024%=      5-min Rain = 0
KAHS 192245Z 19014KT 39/14 A2984 RMK A01 T03860143  RH  024%=      5-min Rain = 0
KAHS 192246Z 19012KT 39/14 A2984 RMK A01 T03860141  RH  023%=      5-min Rain = 0
KAHS 192247Z 18012G17KT 39/14 A2984 RMK A01 T03890143  RH  024%=      5-min Rain = 0
KAHS 192248Z 18011KT 39/15 A2984 RMK A01 T03920145  RH  023%=      5-min Rain = 0
KAHS 192249Z 18012KT 39/14 A2984 RMK A01 T03920144  RH  023%=      5-min Rain = 0
KAHS 192250Z 17011KT 39/14 A2984 RMK A01 T03910144  RH  023%=      5-min Rain = 0
KAHS 192251Z 19014KT 39/15 A2984 RMK A01 T03910146  RH  024%=      5-min Rain = 0
KAHS 192252Z 19013KT 39/15 A2984 RMK A01 T03900149  RH  024%=      5-min Rain = 0
KAHS 192253Z 18009KT 39/15 A2984 RMK A01 T03880150  RH  025%=      5-min Rain = 0
KAHS 192254Z 20012KT 39/15 A2984 RMK A01 T03880148  RH  024%=      5-min Rain = 0
KAHS 192255Z 19011KT 39/15 A2984 RMK A01 T03880146  RH  024%=      5-min Rain = 0
KAHS 192256Z 20008KT 39/15 A2984 RMK A01 T03890146  RH  024%=      5-min Rain = 0
KAHS 192257Z 19012KT 39/15 A2984 RMK A01 T03940148  RH  023%=      5-min Rain = 0
KAHS 192258Z 18015KT 39/14 A2984 RMK A01 T03930140  RH  023%=      5-min Rain = 0
KAHS 192259Z 18013G19KT 39/14 A2984 RMK A01 T03910138  RH  022%=      5-min Rain = 0
KAHS 192300Z 18012KT 39/14 A2984 RMK A01 T03920138  RH  022%=      5-min Rain = 0
KAHS 192301Z 19010KT 39/14 A2984 RMK A01 T03910137  RH  022%=      5-min Rain = 0
KAHS 192302Z 19008KT 39/14 A2984 RMK A01 T03910139  RH  023%=      5-min Rain = 0
KAHS 192303Z 19009KT 39/14 A2984 RMK A01 T03930137  RH  022%=      5-min Rain = 0
KAHS 192304Z 19007KT 39/14 A2984 RMK A01 T03930140  RH  023%=      5-min Rain = 0
KAHS 192305Z 18012KT 40/14 A2984 RMK A01 T03960144  RH  023%=      5-min Rain = 0
KAHS 192306Z 17014G19KT 40/15 A2984 RMK A01 T03950148  RH  023%=      5-min Rain = 0
KAHS 192307Z 18013KT 39/15 A2984 RMK A01 T03930149  RH  024%=      5-min Rain = 0
KAHS 192308Z 17013KT 39/15 A2984 RMK A01 T03920150  RH  024%=      5-min Rain = 0
KAHS 192309Z 17012G17KT 39/15 A2984 RMK A01 T03920152  RH  024%=      5-min Rain = 0
KAHS 192310Z 18013KT 39/15 A2984 RMK A01 T03910149  RH  024%=      5-min Rain = 0
KAHS 192311Z 17010KT 39/15 A2984 RMK A01 T03900151  RH  024%=      5-min Rain = 0
KAHS 192312Z 16013KT 39/15 A2984 RMK A01 T03920150  RH  024%=      5-min Rain = 0
KAHS 192313Z 17014KT 39/15 A2984 RMK A01 T03900148  RH  024%=      5-min Rain = 0
KAHS 192314Z 17012KT 39/15 A2984 RMK A01 T03900150  RH  024%=      5-min Rain = 0
KAHS 192315Z 16010KT 39/15 A2984 RMK A01 T03900148  RH  024%=      5-min Rain = 0
KAHS 192316Z 15009KT 39/15 A2984 RMK A01 T03900149  RH  024%=      5-min Rain = 0
KAHS 192317Z 15009KT 39/15 A2984 RMK A01 T03880148  RH  024%=      5-min Rain = 0
KAHS 192318Z 15008KT 39/15 A2983 RMK A01 T03880149  RH  025%=      5-min Rain = 0
KAHS 192319Z 14009KT 39/15 A2983 RMK A01 T03910151  RH  024%=      5-min Rain = 0
KAHS 192320Z 14014KT 39/15 A2983 RMK A01 T03910149  RH  024%=      5-min Rain = 0
KAHS 192321Z 16011G16KT 39/15 A2983 RMK A01 T03900148  RH  024%=      5-min Rain = 0
KAHS 192322Z 16013KT 39/15 A2983 RMK A01 T03920149  RH  024%=      5-min Rain = 0
KAHS 192323Z 16015G22KT 39/15 A2983 RMK A01 T03910146  RH  024%=      5-min Rain = 0
KAHS 192324Z 18016G21KT 39/15 A2983 RMK A01 T03900147  RH  024%=      5-min Rain = 0
KAHS 192325Z 18012KT 39/15 A2983 RMK A01 T03880147  RH  024%=      5-min Rain = 0
KAHS 192326Z 18011KT 39/15 A2983 RMK A01 T03870148  RH  024%=      5-min Rain = 0
KAHS 192327Z 18011KT 39/15 A2983 RMK A01 T03870149  RH  025%=      5-min Rain = 0
KAHS 192328Z 16012KT 39/15 A2983 RMK A01 T03880150  RH  025%=      5-min Rain = 0
KAHS 192329Z 17012KT 39/15 A2983 RMK A01 T03880151  RH  025%=      5-min Rain = 0
KAHS 192330Z 18012G17KT 39/15 A2983 RMK A01 T03890152  RH  025%=      5-min Rain = 0
KAHS 192331Z 19015KT 39/15 A2983 RMK A01 T03900151  RH  025%=      5-min Rain = 0
KAHS 192332Z 20016KT 39/15 A2983 RMK A01 T03880148  RH  024%=      5-min Rain = 0
KAHS 192333Z 20011KT 39/15 A2983 RMK A01 T03860146  RH  024%=      5-min Rain = 0
KAHS 192334Z 19010KT 39/15 A2983 RMK A01 T03870148  RH  024%=      5-min Rain = 0
KAHS 192335Z 17010KT 39/15 A2983 RMK A01 T03880151  RH  025%=      5-min Rain = 0
KAHS 192336Z 15010KT 39/16 A2983 RMK A01 T03910155  RH  025%=      5-min Rain = 0
KAHS 192337Z 16012KT 39/16 A2983 RMK A01 T03900155  RH  025%=      5-min Rain = 0
KAHS 192338Z 16011G17KT 39/16 A2983 RMK A01 T03890156  RH  025%=      5-min Rain = 0
KAHS 192339Z 15014KT 39/16 A2983 RMK A01 T03880155  RH  025%=      5-min Rain = 0
KAHS 192340Z 15012KT 39/16 A2983 RMK A01 T03850156  RH  026%=      5-min Rain = 0
KAHS 192341Z 15012KT 39/16 A2983 RMK A01 T03850155  RH  026%=      5-min Rain = 0
KAHS 192342Z 17011KT 39/16 A2983 RMK A01 T03850155  RH  026%=      5-min Rain = 0
KAHS 192343Z 19012G18KT 39/16 A2983 RMK A01 T03870156  RH  026%=      5-min Rain = 0
KAHS 192344Z 17012G17KT 39/16 A2983 RMK A01 T03870156  RH  026%=      5-min Rain = 0
KAHS 192345Z 18011KT 39/15 A2983 RMK A01 T03870154  RH  025%=      5-min Rain = 0
KAHS 192346Z 18011KT 39/16 A2983 RMK A01 T03870155  RH  025%=      5-min Rain = 0
KAHS 192347Z 18014KT 39/16 A2983 RMK A01 T03860156  RH  026%=      5-min Rain = 0
KAHS 192348Z 17013G19KT 39/16 A2983 RMK A01 T03860157  RH  026%=      5-min Rain = 0
KAHS 192349Z 17013KT 39/16 A2983 RMK A01 T03850157  RH  026%=      5-min Rain = 0
KAHS 192350Z 16012KT 39/16 A2983 RMK A01 T03850159  RH  026%=      5-min Rain = 0
KAHS 192351Z 17013KT 39/16 A2983 RMK A01 T03860160  RH  026%=      5-min Rain = 0
KAHS 192352Z 16015KT 38/16 A2983 RMK A01 T03840157  RH  026%=      5-min Rain = 0
KAHS 192353Z 16013KT 38/16 A2983 RMK A01 T03830157  RH  026%=      5-min Rain = 0
KAHS 192354Z 16010KT 38/16 A2983 RMK A01 T03830159  RH  027%=      5-min Rain = 0
KAHS 192355Z 14010KT 38/16 A2983 RMK A01 T03830162  RH  027%=      5-min Rain = 0
KAHS 192356Z 16011KT 38/16 A2983 RMK A01 T03830164  RH  028%=      5-min Rain = 0
KAHS 192357Z 15012KT 38/17 A2983 RMK A01 T03830166  RH  028%=      5-min Rain = 0
KAHS 192358Z 15010KT 38/17 A2983 RMK A01 T03820169  RH  029%=      5-min Rain = 0
KAHS 192359Z 16011KT 38/17 A2983 RMK A01 T03810171  RH  029%=      5-min Rain = 0
KAHS 200000Z 14012KT 38/17 A2983 RMK A01 T03800166  RH  029%=      5-min Rain = 0
KAHS 200001Z 14012KT 38/16 A2983 RMK A01 T03790163  RH  028%=      5-min Rain = 0
KAHS 200002Z 15012KT 38/17 A2983 RMK A01 T03780165  RH  028%=      5-min Rain = 0
KAHS 200003Z 15011G16KT 38/17 A2983 RMK A01 T03790166  RH  029%=      5-min Rain = 0
KAHS 200004Z 15012G19KT 38/17 A2983 RMK A01 T03780165  RH  028%=      5-min Rain = 0
KAHS 200005Z 17014KT 38/16 A2983 RMK A01 T03780161  RH  028%=      5-min Rain = 0
KAHS 200006Z 16014KT 38/16 A2983 RMK A01 T03780159  RH  028%=      5-min Rain = 0
KAHS 200007Z 17014KT 38/16 A2983 RMK A01 T03780158  RH  027%=      5-min Rain = 0
KAHS 200008Z 17012KT 38/16 A2983 RMK A01 T03780157  RH  027%=      5-min Rain = 0
KAHS 200009Z 15012KT 38/16 A2983 RMK A01 T03780159  RH  028%=      5-min Rain = 0
KAHS 200010Z 16011KT 38/16 A2983 RMK A01 T03780162  RH  028%=      5-min Rain = 0
KAHS 200011Z 16011KT 38/16 A2983 RMK A01 T03780162  RH  028%=      5-min Rain = 0
KAHS 200012Z 16014KT 38/16 A2983 RMK A01 T03780159  RH  028%=      5-min Rain = 0
KAHS 200013Z 16013KT 38/16 A2983 RMK A01 T03780157  RH  027%=      5-min Rain = 0
KAHS 200014Z 16013G18KT 38/16 A2983 RMK A01 T03780158  RH  027%=      5-min Rain = 0
KAHS 200015Z 17016G21KT 38/16 A2983 RMK A01 T03780155  RH  027%=      5-min Rain = 0
KAHS 200016Z 16014KT 38/16 A2983 RMK A01 T03770155  RH  027%=      5-min Rain = 0
KAHS 200017Z 17015KT 38/16 A2983 RMK A01 T03770155  RH  027%=      5-min Rain = 0
KAHS 200018Z 17014KT 38/16 A2983 RMK A01 T03770156  RH  027%=      5-min Rain = 0
KAHS 200019Z 16015G20KT 38/16 A2983 RMK A01 T03770156  RH  027%=      5-min Rain = 0
KAHS 200020Z 16014KT 38/16 A2983 RMK A01 T03760156  RH  027%=      5-min Rain = 0
KAHS 200021Z 16014KT 38/16 A2984 RMK A01 T03760156  RH  027%=      5-min Rain = 0
KAHS 200022Z 16012G17KT 38/16 A2984 RMK A01 T03760157  RH  027%=      5-min Rain = 0
KAHS 200023Z 16015KT 38/16 A2983 RMK A01 T03750157  RH  028%=      5-min Rain = 0
KAHS 200024Z 17012KT 37/16 A2983 RMK A01 T03740157  RH  028%=      5-min Rain = 0
KAHS 200025Z 16013KT 37/16 A2984 RMK A01 T03740157  RH  028%=      5-min Rain = 0
KAHS 200026Z 16013KT 37/16 A2984 RMK A01 T03740158  RH  028%=      5-min Rain = 0
KAHS 200027Z 15014KT 37/16 A2984 RMK A01 T03740159  RH  028%=      5-min Rain = 0
KAHS 200028Z 15013G18KT 37/16 A2984 RMK A01 T03730160  RH  028%=      5-min Rain = 0
KAHS 200029Z 16013G18KT 37/16 A2984 RMK A01 T03730159  RH  028%=      5-min Rain = 0
KAHS 200030Z 16014G19KT 37/16 A2984 RMK A01 T03730159  RH  028%=      5-min Rain = 0
KAHS 200031Z 17014KT 37/16 A2984 RMK A01 T03730159  RH  028%=      5-min Rain = 0
KAHS 200032Z 16013KT 37/16 A2984 RMK A01 T03720159  RH  028%=      5-min Rain = 0
KAHS 200033Z 16014KT 37/16 A2984 RMK A01 T03720156  RH  028%=      5-min Rain = 0
KAHS 200034Z 16015KT 37/16 A2984 RMK A01 T03720156  RH  028%=      5-min Rain = 0
KAHS 200035Z 16012KT 37/16 A2984 RMK A01 T03720157  RH  028%=      5-min Rain = 0
KAHS 200036Z 16012KT 37/16 A2984 RMK A01 T03720157  RH  028%=      5-min Rain = 0
KAHS 200037Z 17013G18KT 37/16 A2984 RMK A01 T03720158  RH  028%=      5-min Rain = 0
KAHS 200038Z 17014KT 37/16 A2984 RMK A01 T03720156  RH  028%=      5-min Rain = 0
KAHS 200039Z 16013G18KT 37/16 A2984 RMK A01 T03710156  RH  028%=      5-min Rain = 0
KAHS 200040Z 17013KT 37/16 A2984 RMK A01 T03700156  RH  028%=      5-min Rain = 0
KAHS 200041Z 16017KT 37/16 A2984 RMK A01 T03700156  RH  028%=      5-min Rain = 0
KAHS 200042Z 17014G19KT 37/16 A2984 RMK A01 T03700155  RH  028%=      5-min Rain = 0
KAHS 200043Z 17015KT 37/15 A2984 RMK A01 T03690154  RH  028%=      5-min Rain = 0
KAHS 200044Z 17017KT 37/15 A2984 RMK A01 T03680153  RH  028%=      5-min Rain = 0
KAHS 200045Z 17012KT 37/15 A2984 RMK A01 T03680152  RH  028%=      5-min Rain = 0
KAHS 200046Z 17014KT 37/15 A2984 RMK A01 T03680152  RH  028%=      5-min Rain = 0
KAHS 200047Z 17011G16KT 37/15 A2984 RMK A01 T03680154  RH  028%=      5-min Rain = 0
KAHS 200048Z 17011KT 37/15 A2984 RMK A01 T03680153  RH  028%=      5-min Rain = 0
KAHS 200049Z 16012KT 37/15 A2984 RMK A01 T03680154  RH  028%=      5-min Rain = 0
KAHS 200050Z 16013KT 37/16 A2984 RMK A01 T03680155  RH  028%=      5-min Rain = 0
KAHS 200051Z 15015G20KT 37/16 A2984 RMK A01 T03670156  RH  029%=      5-min Rain = 0
KAHS 200052Z 15016G21KT 37/16 A2984 RMK A01 T03660158  RH  029%=      5-min Rain = 0
KAHS 200053Z 15015G20KT 37/16 A2984 RMK A01 T03650160  RH  030%=      5-min Rain = 0
KAHS 200054Z 16014KT 36/16 A2984 RMK A01 T03640163  RH  030%=      5-min Rain = 0
KAHS 200055Z 14013KT 36/16 A2984 RMK A01 T03630164  RH  031%=      5-min Rain = 0
KAHS 200056Z 15016KT 36/16 A2984 RMK A01 T03620164  RH  031%=      5-min Rain = 0
KAHS 200057Z 16014G21KT 36/16 A2984 RMK A01 T03620162  RH  031%=      5-min Rain = 0
KAHS 200058Z 17013G18KT 36/16 A2984 RMK A01 T03620163  RH  031%=      5-min Rain = 0
KAHS 200059Z 16013G18KT 36/16 A2984 RMK A01 T03630162  RH  031%=      5-min Rain = 0
KAHS 200100Z 16011KT 36/16 A2984 RMK A01 T03620163  RH  031%=      5-min Rain = 0
KAHS 200101Z 16011KT 36/16 A2984 RMK A01 T03620162  RH  031%=      5-min Rain = 0
KAHS 200102Z 16010KT 36/16 A2984 RMK A01 T03620163  RH  031%=      5-min Rain = 0
KAHS 200103Z 16013KT 36/16 A2984 RMK A01 T03620163  RH  031%=      5-min Rain = 0
KAHS 200104Z 16014KT 36/16 A2984 RMK A01 T03610164  RH  031%=      5-min Rain = 0
KAHS 200105Z 16011KT 36/17 A2985 RMK A01 T03600166  RH  032%=      5-min Rain = 0
KAHS 200106Z 15014KT 36/17 A2985 RMK A01 T03590168  RH  032%=      5-min Rain = 0
KAHS 200107Z 16014KT 36/17 A2985 RMK A01 T03590167  RH  032%=      5-min Rain = 0
KAHS 200108Z 15016G21KT 36/17 A2985 RMK A01 T03580166  RH  032%=      5-min Rain = 0
KAHS 200109Z 16013G20KT 36/17 A2985 RMK A01 T03570165  RH  032%=      5-min Rain = 0
KAHS 200110Z 16010KT 36/17 A2985 RMK A01 T03570166  RH  032%=      5-min Rain = 0
KAHS 200111Z 16015KT 36/16 A2985 RMK A01 T03570164  RH  032%=      5-min Rain = 0
KAHS 200112Z 17014KT 36/16 A2985 RMK A01 T03560162  RH  031%=      5-min Rain = 0
KAHS 200113Z 16013KT 36/16 A2985 RMK A01 T03570161  RH  031%=      5-min Rain = 0
KAHS 200114Z 16014G21KT 36/16 A2985 RMK A01 T03560161  RH  031%=      5-min Rain = 0
KAHS 200115Z 15016KT 36/16 A2984 RMK A01 T03560158  RH  031%=      5-min Rain = 0
KAHS 200116Z 16015G20KT 36/16 A2985 RMK A01 T03560158  RH  031%=      5-min Rain = 0
KAHS 200117Z 16015KT 36/16 A2985 RMK A01 T03560158  RH  031%=      5-min Rain = 0
KAHS 200118Z 16013G18KT 36/16 A2985 RMK A01 T03550158  RH  031%=      5-min Rain = 0
KAHS 200119Z 15018KT 36/16 A2985 RMK A01 T03550158  RH  031%=      5-min Rain = 0
KAHS 200120Z 16016KT 36/16 A2985 RMK A01 T03550157  RH  031%=      5-min Rain = 0
KAHS 200121Z 16015G21KT 36/16 A2985 RMK A01 T03550157  RH  031%=      5-min Rain = 0
KAHS 200122Z 17012KT 35/16 A2985 RMK A01 T03540157  RH  031%=      5-min Rain = 0
KAHS 200123Z 16012KT 35/16 A2985 RMK A01 T03540158  RH  031%=      5-min Rain = 0
KAHS 200124Z 16012G17KT 35/16 A2985 RMK A01 T03540157  RH  031%=      5-min Rain = 0
KAHS 200125Z 16014KT 35/16 A2985 RMK A01 T03530157  RH  031%=      5-min Rain = 0
KAHS 200126Z 17016KT 35/16 A2985 RMK A01 T03530156  RH  031%=      5-min Rain = 0
KAHS 200127Z 16014G21KT 35/16 A2985 RMK A01 T03530157  RH  031%=      5-min Rain = 0
KAHS 200128Z 17014KT 35/16 A2985 RMK A01 T03520157  RH  031%=      5-min Rain = 0
KAHS 200129Z 16012G17KT 35/16 A2985 RMK A01 T03510157  RH  031%=      5-min Rain = 0
KAHS 200130Z 16016KT 35/16 A2985 RMK A01 T03510157  RH  031%=      5-min Rain = 0
KAHS 200131Z 16013KT 35/16 A2985 RMK A01 T03510157  RH  032%=      5-min Rain = 0
KAHS 200132Z 16014KT 35/16 A2985 RMK A01 T03500157  RH  032%=      5-min Rain = 0
KAHS 200133Z 16015KT 35/16 A2985 RMK A01 T03500157  RH  032%=      5-min Rain = 0
KAHS 200134Z 16014G22KT 35/16 A2985 RMK A01 T03500157  RH  032%=      5-min Rain = 0
KAHS 200135Z 17016KT 35/16 A2985 RMK A01 T03490157  RH  032%=      5-min Rain = 0
KAHS 200136Z 17014KT 35/16 A2985 RMK A01 T03490157  RH  032%=      5-min Rain = 0
KAHS 200137Z 17011KT 35/16 A2985 RMK A01 T03480157  RH  032%=      5-min Rain = 0
KAHS 200138Z 16014G19KT 35/16 A2985 RMK A01 T03470158  RH  032%=      5-min Rain = 0
KAHS 200139Z 16014G20KT 35/16 A2985 RMK A01 T03470157  RH  032%=      5-min Rain = 0
KAHS 200140Z 16012KT 35/16 A2985 RMK A01 T03460156  RH  032%=      5-min Rain = 0
KAHS 200141Z 16013G18KT 35/16 A2985 RMK A01 T03460156  RH  032%=      5-min Rain = 0
KAHS 200142Z 16016KT 35/16 A2985 RMK A01 T03460155  RH  032%=      5-min Rain = 0
KAHS 200143Z 16012KT 35/16 A2986 RMK A01 T03460155  RH  032%=      5-min Rain = 0
KAHS 200144Z 17012KT 35/15 A2985 RMK A01 T03450154  RH  032%=      5-min Rain = 0
KAHS 200145Z 16015G20KT 35/15 A2985 RMK A01 T03450153  RH  032%=      5-min Rain = 0
KAHS 200146Z 17015G20KT 34/15 A2985 RMK A01 T03440152  RH  032%=      5-min Rain = 0
KAHS 200147Z 16013KT 34/15 A2986 RMK A01 T03440153  RH  032%=      5-min Rain = 0
KAHS 200148Z 16013KT 34/15 A2986 RMK A01 T03440153  RH  032%=      5-min Rain = 0
KAHS 200149Z 17014G19KT 34/15 A2986 RMK A01 T03430152  RH  032%=      5-min Rain = 0
KAHS 200150Z 17015KT 34/15 A2986 RMK A01 T03430151  RH  032%=      5-min Rain = 0
KAHS 200151Z 16016G21KT 34/15 A2986 RMK A01 T03430150  RH  031%=      5-min Rain = 0
KAHS 200152Z 17016G21KT 34/15 A2986 RMK A01 T03430150  RH  031%=      5-min Rain = 0
KAHS 200153Z 15014KT 34/15 A2986 RMK A01 T03430149  RH  031%=      5-min Rain = 0
KAHS 200154Z 17012KT 34/15 A2986 RMK A01 T03420150  RH  032%=      5-min Rain = 0
KAHS 200155Z 16013G18KT 34/15 A2986 RMK A01 T03420150  RH  032%=      5-min Rain = 0
KAHS 200156Z 16015G20KT 34/15 A2986 RMK A01 T03410148  RH  031%=      5-min Rain = 0
KAHS 200157Z 17014KT 34/15 A2986 RMK A01 T03410148  RH  031%=      5-min Rain = 0
KAHS 200158Z 16012KT 34/15 A2986 RMK A01 T03410147  RH  031%=      5-min Rain = 0
KAHS 200159Z 16013KT 34/15 A2986 RMK A01 T03410147  RH  031%=      5-min Rain = 0
KAHS 200200Z 16011KT 34/15 A2986 RMK A01 T03400146  RH  031%=      5-min Rain = 0
KAHS 200201Z 16009KT 34/15 A2986 RMK A01 T03400148  RH  032%=      5-min Rain = 0
KAHS 200202Z 16009KT 34/15 A2986 RMK A01 T03390149  RH  032%=      5-min Rain = 0
KAHS 200203Z 16010G18KT 34/15 A2986 RMK A01 T03380148  RH  032%=      5-min Rain = 0
KAHS 200204Z 16013G20KT 34/15 A2986 RMK A01 T03380146  RH  032%=      5-min Rain = 0
KAHS 200205Z 16013KT 34/15 A2986 RMK A01 T03380146  RH  032%=      5-min Rain = 0
KAHS 200206Z 16011KT 34/15 A2986 RMK A01 T03380146  RH  032%=      5-min Rain = 0
KAHS 200207Z 16012KT 34/15 A2986 RMK A01 T03380146  RH  032%=      5-min Rain = 0
KAHS 200208Z 17012KT 34/15 A2986 RMK A01 T03370145  RH  031%=      5-min Rain = 0
KAHS 200209Z 16012KT 34/14 A2986 RMK A01 T03370144  RH  031%=      5-min Rain = 0
KAHS 200210Z 17012KT 34/14 A2986 RMK A01 T03370143  RH  031%=      5-min Rain = 0
KAHS 200211Z 16010KT 34/14 A2986 RMK A01 T03370143  RH  031%=      5-min Rain = 0
KAHS 200212Z 16010G16KT 34/14 A2986 RMK A01 T03360142  RH  031%=      5-min Rain = 0
KAHS 200213Z 16016KT 34/14 A2986 RMK A01 T03360140  RH  031%=      5-min Rain = 0
KAHS 200214Z 15012KT 34/14 A2986 RMK A01 T03370139  RH  030%=      5-min Rain = 0
KAHS 200215Z 16011KT 34/14 A2986 RMK A01 T03370141  RH  031%=      5-min Rain = 0
KAHS 200216Z 16010KT 34/14 A2986 RMK A01 T03360140  RH  031%=      5-min Rain = 0
KAHS 200217Z 17011KT 34/14 A2986 RMK A01 T03350139  RH  031%=      5-min Rain = 0
KAHS 200218Z 17012G19KT 34/14 A2986 RMK A01 T03350137  RH  030%=      5-min Rain = 0
KAHS 200219Z 16011KT 34/14 A2986 RMK A01 T03350135  RH  030%=      5-min Rain = 0
KAHS 200220Z 16011KT 34/14 A2986 RMK A01 T03350135  RH  030%=      5-min Rain = 0
KAHS 200221Z 16011KT 34/14 A2986 RMK A01 T03350135  RH  030%=      5-min Rain = 0
KAHS 200222Z 16015KT 34/13 A2986 RMK A01 T03350133  RH  030%=      5-min Rain = 0
KAHS 200223Z 17012KT 34/13 A2986 RMK A01 T03350131  RH  029%=      5-min Rain = 0
KAHS 200224Z 17015KT 34/13 A2987 RMK A01 T03350130  RH  029%=      5-min Rain = 0
KAHS 200225Z 16011KT 34/13 A2987 RMK A01 T03350130  RH  029%=      5-min Rain = 0
KAHS 200226Z 16015KT 34/13 A2987 RMK A01 T03360130  RH  029%=      5-min Rain = 0
KAHS 200227Z 16012G19KT 34/13 A2987 RMK A01 T03350130  RH  029%=      5-min Rain = 0
KAHS 200228Z 16014KT 34/13 A2987 RMK A01 T03350130  RH  029%=      5-min Rain = 0
KAHS 200229Z 17012KT 34/13 A2987 RMK A01 T03350129  RH  029%=      5-min Rain = 0
KAHS 200230Z 16012G19KT 34/13 A2987 RMK A01 T03350129  RH  029%=      5-min Rain = 0
KAHS 200231Z 16014KT 33/13 A2987 RMK A01 T03340128  RH  029%=      5-min Rain = 0
KAHS 200232Z 16013KT 33/13 A2987 RMK A01 T03340127  RH  029%=      5-min Rain = 0
KAHS 200233Z 16013KT 33/13 A2987 RMK A01 T03340127  RH  028%=      5-min Rain = 0
KAHS 200234Z 16013KT 33/13 A2987 RMK A01 T03340127  RH  028%=      5-min Rain = 0
KAHS 200235Z 16013KT 33/13 A2987 RMK A01 T03340126  RH  028%=      5-min Rain = 0
KAHS 200236Z 16012G17KT 33/13 A2987 RMK A01 T03330127  RH  029%=      5-min Rain = 0
KAHS 200237Z 17016KT 33/13 A2987 RMK A01 T03330126  RH  028%=      5-min Rain = 0
KAHS 200238Z 16011G16KT 33/13 A2987 RMK A01 T03330125  RH  028%=      5-min Rain = 0
KAHS 200239Z 17015G21KT 33/12 A2987 RMK A01 T03330124  RH  028%=      5-min Rain = 0
KAHS 200240Z 16015KT 33/12 A2987 RMK A01 T03330124  RH  028%=      5-min Rain = 0
KAHS 200241Z 17013KT 33/12 A2987 RMK A01 T03330124  RH  028%=      5-min Rain = 0
KAHS 200242Z 17015KT 33/12 A2987 RMK A01 T03330124  RH  028%=      5-min Rain = 0
KAHS 200243Z 16013G18KT 33/12 A2987 RMK A01 T03330123  RH  028%=      5-min Rain = 0
KAHS 200244Z 16012KT 33/12 A2987 RMK A01 T03330124  RH  028%=      5-min Rain = 0
KAHS 200245Z 16013KT 33/12 A2987 RMK A01 T03320124  RH  028%=      5-min Rain = 0
KAHS 200246Z 17012KT 33/12 A2987 RMK A01 T03320124  RH  028%=      5-min Rain = 0
KAHS 200247Z 16013KT 33/12 A2987 RMK A01 T03320124  RH  028%=      5-min Rain = 0
KAHS 200248Z 16012KT 33/12 A2987 RMK A01 T03320123  RH  028%=      5-min Rain = 0
KAHS 200249Z 17010KT 33/12 A2987 RMK A01 T03310123  RH  028%=      5-min Rain = 0
KAHS 200250Z 16013KT 33/12 A2987 RMK A01 T03310123  RH  028%=      5-min Rain = 0
KAHS 200251Z 16009KT 33/12 A2987 RMK A01 T03310123  RH  028%=      5-min Rain = 0
KAHS 200252Z 16011KT 33/12 A2988 RMK A01 T03300124  RH  029%=      5-min Rain = 0
KAHS 200253Z 17014KT 33/12 A2988 RMK A01 T03300123  RH  028%=      5-min Rain = 0
KAHS 200254Z 16015G21KT 33/12 A2988 RMK A01 T03300123  RH  028%=      5-min Rain = 0
KAHS 200255Z 17013G20KT 33/12 A2988 RMK A01 T03310122  RH  028%=      5-min Rain = 0
KAHS 200256Z 16011KT 33/12 A2988 RMK A01 T03300123  RH  028%=      5-min Rain = 0
KAHS 200257Z 16011G16KT 33/12 A2988 RMK A01 T03300123  RH  028%=      5-min Rain = 0
KAHS 200258Z 16013KT 33/12 A2988 RMK A01 T03290123  RH  029%=      5-min Rain = 0
KAHS 200259Z 16013G18KT 33/12 A2988 RMK A01 T03300123  RH  028%=      5-min Rain = 0
KAHS 200300Z 17012KT 33/12 A2988 RMK A01 T03300123  RH  028%=      5-min Rain = 0
KAHS 200301Z 17012KT 33/12 A2988 RMK A01 T03300123  RH  028%=      5-min Rain = 0
KAHS 200302Z 17012KT 33/12 A2988 RMK A01 T03300124  RH  029%=      5-min Rain = 0
KAHS 200303Z 17010G16KT 33/12 A2988 RMK A01 T03290124  RH  029%=      5-min Rain = 0
KAHS 200304Z 17012KT 33/12 A2988 RMK A01 T03290124  RH  029%=      5-min Rain = 0
KAHS 200305Z 17010KT 33/12 A2988 RMK A01 T03280124  RH  029%=      5-min Rain = 0
KAHS 200306Z 17010KT 33/13 A2988 RMK A01 T03280125  RH  029%=      5-min Rain = 0
KAHS 200307Z 16013G18KT 33/13 A2988 RMK A01 T03280125  RH  029%=      5-min Rain = 0
KAHS 200308Z 16016KT 33/13 A2988 RMK A01 T03290126  RH  029%=      5-min Rain = 0
KAHS 200309Z 17014G19KT 33/13 A2988 RMK A01 T03290126  RH  029%=      5-min Rain = 0
KAHS 200310Z 17013KT 33/13 A2988 RMK A01 T03290127  RH  029%=      5-min Rain = 0
KAHS 200311Z 17013KT 33/13 A2988 RMK A01 T03280127  RH  029%=      5-min Rain = 0
KAHS 200312Z 16011KT 33/13 A2988 RMK A01 T03280128  RH  030%=      5-min Rain = 0
KAHS 200313Z 17011KT 33/13 A2988 RMK A01 T03270128  RH  030%=      5-min Rain = 0
KAHS 200314Z 16012KT 33/13 A2988 RMK A01 T03260129  RH  030%=      5-min Rain = 0
KAHS 200315Z 16015G20KT 33/13 A2988 RMK A01 T03260129  RH  030%=      5-min Rain = 0
KAHS 200316Z 17014KT 33/13 A2988 RMK A01 T03270129  RH  030%=      5-min Rain = 0
KAHS 200317Z 17014KT 33/13 A2988 RMK A01 T03270130  RH  030%=      5-min Rain = 0
KAHS 200318Z 17012KT 33/13 A2988 RMK A01 T03260131  RH  030%=      5-min Rain = 0
KAHS 200319Z 17012KT 33/13 A2988 RMK A01 T03260131  RH  031%=      5-min Rain = 0
KAHS 200320Z 16012KT 33/13 A2989 RMK A01 T03250132  RH  031%=      5-min Rain = 0
KAHS 200321Z 17011KT 33/13 A2989 RMK A01 T03250132  RH  031%=      5-min Rain = 0
KAHS 200322Z 16012G17KT 33/13 A2989 RMK A01 T03250133  RH  031%=      5-min Rain = 0
KAHS 200323Z 16013KT 33/13 A2989 RMK A01 T03250133  RH  031%=      5-min Rain = 0
KAHS 200324Z 16011KT 33/13 A2989 RMK A01 T03250133  RH  031%=      5-min Rain = 0
KAHS 200325Z 17011KT 32/13 A2989 RMK A01 T03240134  RH  031%=      5-min Rain = 0
KAHS 200326Z 17012KT 32/14 A2989 RMK A01 T03240135  RH  032%=      5-min Rain = 0
KAHS 200327Z 17011G16KT 32/13 A2989 RMK A01 T03230134  RH  032%=      5-min Rain = 0
KAHS 200328Z 16014KT 32/13 A2989 RMK A01 T03230134  RH  032%=      5-min Rain = 0
KAHS 200329Z 17012KT 32/14 A2989 RMK A01 T03230135  RH  032%=      5-min Rain = 0
KAHS 200330Z 16012KT 32/14 A2989 RMK A01 T03230135  RH  032%=      5-min Rain = 0
KAHS 200331Z 17013KT 32/14 A2989 RMK A01 T03230136  RH  032%=      5-min Rain = 0
KAHS 200332Z 17010KT 32/14 A2989 RMK A01 T03220135  RH  032%=      5-min Rain = 0
KAHS 200333Z 17015KT 32/14 A2989 RMK A01 T03220135  RH  032%=      5-min Rain = 0
KAHS 200334Z 17012KT 32/14 A2989 RMK A01 T03220136  RH  032%=      5-min Rain = 0
KAHS 200335Z 16012KT 32/14 A2989 RMK A01 T03220136  RH  032%=      5-min Rain = 0
KAHS 200336Z 16014KT 32/14 A2989 RMK A01 T03220136  RH  032%=      5-min Rain = 0
KAHS 200337Z 17013KT 32/14 A2989 RMK A01 T03220136  RH  032%=      5-min Rain = 0
KAHS 200338Z 17013KT 32/14 A2989 RMK A01 T03220137  RH  033%=      5-min Rain = 0
KAHS 200339Z 17012KT 32/14 A2989 RMK A01 T03220137  RH  033%=      5-min Rain = 0
KAHS 200340Z 17012G18KT 32/14 A2989 RMK A01 T03210137  RH  033%=      5-min Rain = 0
KAHS 200341Z 17012KT 32/14 A2989 RMK A01 T03210137  RH  033%=      5-min Rain = 0
KAHS 200342Z 17014KT 32/14 A2989 RMK A01 T03200137  RH  033%=      5-min Rain = 0
KAHS 200343Z 17013KT 32/14 A2989 RMK A01 T03210137  RH  033%=      5-min Rain = 0
KAHS 200344Z 16013G19KT 32/14 A2989 RMK A01 T03200137  RH  033%=      5-min Rain = 0
KAHS 200345Z 17011G16KT 32/14 A299 RMK A01 T03210137  RH  033%=      5-min Rain = 0
KAHS 200346Z 17014KT 32/14 A299 RMK A01 T03210137  RH  033%=      5-min Rain = 0
KAHS 200347Z 18012KT 32/14 A299 RMK A01 T03200137  RH  033%=      5-min Rain = 0
KAHS 200348Z 17010KT 32/14 A299 RMK A01 T03200138  RH  033%=      5-min Rain = 0
KAHS 200349Z 17010KT 32/14 A299 RMK A01 T03190138  RH  033%=      5-min Rain = 0
KAHS 200350Z 17009KT 32/14 A299 RMK A01 T03180138  RH  033%=      5-min Rain = 0
KAHS 200351Z 16010KT 32/14 A299 RMK A01 T03170138  RH  034%=      5-min Rain = 0
KAHS 200352Z 17009KT 32/14 A299 RMK A01 T03170138  RH  034%=      5-min Rain = 0
KAHS 200353Z 17010KT 32/14 A299 RMK A01 T03170138  RH  034%=      5-min Rain = 0
KAHS 200354Z 18010KT 32/14 A299 RMK A01 T03170138  RH  034%=      5-min Rain = 0
KAHS 200355Z 17010KT 32/14 A299 RMK A01 T03160138  RH  034%=      5-min Rain = 0
KAHS 200356Z 17010KT 32/14 A299 RMK A01 T03160137  RH  034%=      5-min Rain = 0
KAHS 200357Z 18009KT 32/14 A299 RMK A01 T03160137  RH  034%=      5-min Rain = 0
KAHS 200358Z 18011KT 32/14 A299 RMK A01 T03150137  RH  034%=      5-min Rain = 0
KAHS 200359Z 17010KT 32/14 A299 RMK A01 T03150137  RH  034%=      5-min Rain = 0
KAHS 200400Z 17010KT 32/14 A299 RMK A01 T03150138  RH  034%=      5-min Rain = 0
KAHS 200401Z 17011KT 32/14 A299 RMK A01 T03160138  RH  034%=      5-min Rain = 0
KAHS 200402Z 17010KT 32/14 A299 RMK A01 T03160138  RH  034%=      5-min Rain = 0
KAHS 200403Z 17011KT 32/14 A299 RMK A01 T03160138  RH  034%=      5-min Rain = 0
KAHS 200404Z 17010KT 32/14 A299 RMK A01 T03160138  RH  034%=      5-min Rain = 0
KAHS 200405Z 17011KT 32/14 A299 RMK A01 T03150138  RH  034%=      5-min Rain = 0
KAHS 200406Z 17013KT 32/14 A299 RMK A01 T03150138  RH  034%=      5-min Rain = 0
KAHS 200407Z 17011KT 32/14 A299 RMK A01 T03150138  RH  034%=      5-min Rain = 0
KAHS 200408Z 18010KT 32/14 A299 RMK A01 T03160138  RH  034%=      5-min Rain = 0
KAHS 200409Z 17009KT 32/14 A299 RMK A01 T03150138  RH  034%=      5-min Rain = 0
KAHS 200410Z 17010KT 31/14 A299 RMK A01 T03140138  RH  034%=      5-min Rain = 0
KAHS 200411Z 17012KT 31/14 A299 RMK A01 T03140138  RH  034%=      5-min Rain = 0
KAHS 200412Z 18011KT 32/14 A299 RMK A01 T03150138  RH  034%=      5-min Rain = 0
KAHS 200413Z 18011KT 32/14 A299 RMK A01 T03150138  RH  034%=      5-min Rain = 0
KAHS 200414Z 18013KT 32/14 A299 RMK A01 T03150138  RH  034%=      5-min Rain = 0
KAHS 200415Z 17011KT 32/14 A299 RMK A01 T03150138  RH  034%=      5-min Rain = 0
KAHS 200416Z 18012KT 32/14 A299 RMK A01 T03150138  RH  034%=      5-min Rain = 0
KAHS 200417Z 18011KT 32/14 A299 RMK A01 T03150139  RH  034%=      5-min Rain = 0
KAHS 200418Z 18011KT 32/14 A299 RMK A01 T03150139  RH  034%=      5-min Rain = 0
KAHS 200419Z 18011KT 32/14 A299 RMK A01 T03150139  RH  034%=      5-min Rain = 0
KAHS 200420Z 18012KT 32/14 A299 RMK A01 T03150139  RH  034%=      5-min Rain = 0
KAHS 200421Z 18015KT 32/14 A299 RMK A01 T03150139  RH  034%=      5-min Rain = 0
KAHS 200422Z 18012KT 32/14 A299 RMK A01 T03150140  RH  034%=      5-min Rain = 0
KAHS 200423Z 18012KT 32/14 A299 RMK A01 T03150140  RH  035%=      5-min Rain = 0
KAHS 200424Z 18010KT 31/14 A299 RMK A01 T03140140  RH  035%=      5-min Rain = 0
KAHS 200425Z 18011G18KT 31/14 A299 RMK A01 T03130140  RH  035%=      5-min Rain = 0
KAHS 200426Z 19011KT 31/14 A299 RMK A01 T03140140  RH  035%=      5-min Rain = 0
KAHS 200427Z 18009KT 31/14 A299 RMK A01 T03130141  RH  035%=      5-min Rain = 0
KAHS 200428Z 18012KT 31/14 A299 RMK A01 T03130141  RH  035%=      5-min Rain = 0
KAHS 200429Z 18013G18KT 31/14 A299 RMK A01 T03130140  RH  035%=      5-min Rain = 0
KAHS 200430Z 18011G17KT 31/14 A299 RMK A01 T03130140  RH  035%=      5-min Rain = 0
KAHS 200431Z 18011KT 31/14 A299 RMK A01 T03130141  RH  035%=      5-min Rain = 0
KAHS 200432Z 18012G17KT 31/14 A299 RMK A01 T03130141  RH  035%=      5-min Rain = 0
KAHS 200433Z 18010G15KT 31/14 A299 RMK A01 T03130140  RH  035%=      5-min Rain = 0
KAHS 200434Z 19013KT 31/14 A299 RMK A01 T03120140  RH  035%=      5-min Rain = 0
KAHS 200435Z 19011KT 31/14 A299 RMK A01 T03120141  RH  035%=      5-min Rain = 0
KAHS 200436Z 19009KT 31/14 A2991 RMK A01 T03110142  RH  036%=      5-min Rain = 0
KAHS 200437Z 19009KT 31/14 A299 RMK A01 T03100142  RH  036%=      5-min Rain = 0
KAHS 200438Z 18012KT 31/14 A299 RMK A01 T03100141  RH  036%=      5-min Rain = 0
KAHS 200439Z 19011KT 31/14 A2991 RMK A01 T03110141  RH  036%=      5-min Rain = 0
KAHS 200440Z 18010KT 31/14 A2991 RMK A01 T03110141  RH  036%=      5-min Rain = 0
KAHS 200441Z 19010KT 31/14 A2991 RMK A01 T03110142  RH  036%=      5-min Rain = 0
KAHS 200442Z 18008KT 31/14 A2991 RMK A01 T03090143  RH  036%=      5-min Rain = 0
KAHS 200443Z 18010KT 31/14 A2991 RMK A01 T03090143  RH  036%=      5-min Rain = 0
KAHS 200444Z 19011KT 31/14 A2991 RMK A01 T03090143  RH  036%=      5-min Rain = 0
KAHS 200445Z 19013KT 31/14 A2991 RMK A01 T03090143  RH  037%=      5-min Rain = 0
KAHS 200446Z 19011G16KT 31/14 A299 RMK A01 T03090144  RH  037%=      5-min Rain = 0
KAHS 200447Z 20009KT 31/14 A2991 RMK A01 T03090144  RH  037%=      5-min Rain = 0
KAHS 200448Z 19010KT 31/14 A2991 RMK A01 T03080144  RH  037%=      5-min Rain = 0
KAHS 200449Z 18011KT 31/14 A2991 RMK A01 T03080144  RH  037%=      5-min Rain = 0
KAHS 200450Z 19010KT 31/14 A2991 RMK A01 T03080144  RH  037%=      5-min Rain = 0
KAHS 200451Z 18012KT 31/15 A299 RMK A01 T03080145  RH  037%=      5-min Rain = 0
KAHS 200452Z 18009G15KT 31/14 A2991 RMK A01 T03080144  RH  037%=      5-min Rain = 0
KAHS 200453Z 18011KT 31/15 A299 RMK A01 T03080145  RH  037%=      5-min Rain = 0
KAHS 200454Z 19011G16KT 31/15 A2991 RMK A01 T03070145  RH  037%=      5-min Rain = 0
KAHS 200455Z 18010KT 31/15 A2991 RMK A01 T03070145  RH  038%=      5-min Rain = 0
KAHS 200456Z 19012KT 31/15 A2991 RMK A01 T03060146  RH  038%=      5-min Rain = 0
KAHS 200457Z 19011KT 31/15 A2991 RMK A01 T03070147  RH  038%=      5-min Rain = 0
KAHS 200458Z 19011G18KT 31/15 A2991 RMK A01 T03060147  RH  038%=      5-min Rain = 0
KAHS 200459Z 18013KT 31/15 A2991 RMK A01 T03060146  RH  038%=      5-min Rain = 0

Page generated in 0.0887 seconds.